Observation data for Stinnett on 06/19/2019      Previous  Date  Next       Current Mesonet Observations  Soil Data  Daily Summary Page  Observations in Plain Language
KST3 190500Z 01010KT 16/13 A2992 RMK A01 T01560133  RH  086%=      5-min Rain = 0
KST3 190501Z 01010KT 16/13 A2993 RMK A01 T01560133  RH  086%=      5-min Rain = 0
KST3 190502Z 02010KT 16/13 A2993 RMK A01 T01560133  RH  086%=      5-min Rain = 0
KST3 190503Z 02010KT 16/13 A2993 RMK A01 T01560134  RH  087%=      5-min Rain = 0
KST3 190504Z 02010KT 16/13 A2993 RMK A01 T01550133  RH  087%=      5-min Rain = 0
KST3 190505Z 02010KT 16/13 A2993 RMK A01 T01550133  RH  086%=      5-min Rain = 0
KST3 190506Z 02010KT 16/13 A2993 RMK A01 T01560133  RH  086%=      5-min Rain = 0
KST3 190507Z 03010KT 16/13 A2993 RMK A01 T01560133  RH  086%=      5-min Rain = 0
KST3 190508Z 03009KT 16/13 A2992 RMK A01 T01560133  RH  086%=      5-min Rain = 0
KST3 190509Z 03009KT 16/13 A2992 RMK A01 T01560133  RH  086%=      5-min Rain = 0
KST3 190510Z 03009KT 16/13 A2992 RMK A01 T01550132  RH  086%=      5-min Rain = 0
KST3 190511Z 02010KT 16/13 A2992 RMK A01 T01550133  RH  086%=      5-min Rain = 0
KST3 190512Z 02011KT 16/13 A2992 RMK A01 T01550132  RH  086%=      5-min Rain = 0
KST3 190513Z 02010KT 16/13 A2992 RMK A01 T01550132  RH  086%=      5-min Rain = 0
KST3 190514Z 02010KT 16/13 A2992 RMK A01 T01550133  RH  086%=      5-min Rain = 0
KST3 190515Z 01011KT 16/13 A2992 RMK A01 T01550133  RH  087%=      5-min Rain = 0
KST3 190516Z 01013KT 16/13 A2992 RMK A01 T01550134  RH  087%=      5-min Rain = 0
KST3 190517Z 01012KT 16/13 A2992 RMK A01 T01550134  RH  087%=      5-min Rain = 0
KST3 190518Z 01012KT 16/13 A2992 RMK A01 T01550134  RH  087%=      5-min Rain = 0
KST3 190519Z 01013KT 16/13 A2992 RMK A01 T01550134  RH  087%=      5-min Rain = 0
KST3 190520Z 01012KT 16/13 A2992 RMK A01 T01550133  RH  087%=      5-min Rain = 0
KST3 190521Z 01012KT 16/13 A2992 RMK A01 T01550133  RH  087%=      5-min Rain = 0
KST3 190522Z 01012KT 16/13 A2992 RMK A01 T01550133  RH  087%=      5-min Rain = 0
KST3 190523Z 01012KT 16/13 A2992 RMK A01 T01550133  RH  087%=      5-min Rain = 0
KST3 190524Z 01013KT 16/13 A2992 RMK A01 T01550133  RH  087%=      5-min Rain = 0
KST3 190525Z 01013KT 16/13 A2992 RMK A01 T01550133  RH  087%=      5-min Rain = 0
KST3 190526Z 01013KT 16/13 A2992 RMK A01 T01550133  RH  087%=      5-min Rain = 0
KST3 190527Z 01012KT 16/13 A2992 RMK A01 T01550133  RH  086%=      5-min Rain = 0
KST3 190528Z 01012KT 16/13 A2992 RMK A01 T01560132  RH  086%=      5-min Rain = 0
KST3 190529Z 01012KT 16/13 A2992 RMK A01 T01550133  RH  086%=      5-min Rain = 0
KST3 190530Z 01012KT 16/13 A2992 RMK A01 T01550133  RH  086%=      5-min Rain = 0
KST3 190531Z 01013KT 16/13 A2992 RMK A01 T01560132  RH  086%=      5-min Rain = 0
KST3 190532Z 01012KT 16/13 A2992 RMK A01 T01560132  RH  086%=      5-min Rain = 0
KST3 190533Z 01013KT 16/13 A2992 RMK A01 T01560132  RH  086%=      5-min Rain = 0
KST3 190534Z 01012KT 16/13 A2992 RMK A01 T01560131  RH  085%=      5-min Rain = 0
KST3 190535Z 01013KT 16/13 A2993 RMK A01 T01570131  RH  085%=      5-min Rain = 0
KST3 190536Z 02012KT 16/13 A2993 RMK A01 T01570130  RH  084%=      5-min Rain = 0
KST3 190537Z 01011KT 16/13 A2993 RMK A01 T01570130  RH  084%=      5-min Rain = 0
KST3 190538Z 02012KT 16/13 A2993 RMK A01 T01580130  RH  084%=      5-min Rain = 0
KST3 190539Z 02012KT 16/13 A2993 RMK A01 T01580130  RH  083%=      5-min Rain = 0
KST3 190540Z 01012KT 16/13 A2993 RMK A01 T01580130  RH  083%=      5-min Rain = 0
KST3 190541Z 02011KT 16/13 A2993 RMK A01 T01580131  RH  084%=      5-min Rain = 0
KST3 190542Z 02011KT 16/13 A2993 RMK A01 T01580131  RH  084%=      5-min Rain = 0
KST3 190543Z 02011KT 16/13 A2993 RMK A01 T01580131  RH  084%=      5-min Rain = 0
KST3 190544Z 02010KT 16/13 A2993 RMK A01 T01580131  RH  084%=      5-min Rain = 0
KST3 190545Z 02009KT 16/13 A2994 RMK A01 T01570131  RH  085%=      5-min Rain = 0
KST3 190546Z 02010KT 16/13 A2994 RMK A01 T01570131  RH  085%=      5-min Rain = 0
KST3 190547Z 02009KT 16/13 A2994 RMK A01 T01570131  RH  085%=      5-min Rain = 0
KST3 190548Z 02009KT 16/13 A2994 RMK A01 T01570131  RH  085%=      5-min Rain = 0
KST3 190549Z 02009KT 16/13 A2994 RMK A01 T01570130  RH  084%=      5-min Rain = 0
KST3 190550Z 03009KT 16/13 A2994 RMK A01 T01570130  RH  084%=      5-min Rain = 0
KST3 190551Z 03008KT 16/13 A2995 RMK A01 T01570130  RH  084%=      5-min Rain = 0
KST3 190552Z 03008KT 16/13 A2995 RMK A01 T01570131  RH  084%=      5-min Rain = 0
KST3 190553Z 03008KT 16/13 A2995 RMK A01 T01570131  RH  084%=      5-min Rain = 0
KST3 190554Z 03008KT 16/13 A2995 RMK A01 T01570131  RH  085%=      5-min Rain = 0
KST3 190555Z 04008KT 16/13 A2995 RMK A01 T01560131  RH  085%=      5-min Rain = 0
KST3 190556Z 05006KT 16/13 A2996 RMK A01 T01560130  RH  085%=      5-min Rain = 0
KST3 190557Z 06007KT 16/13 A2996 RMK A01 T01560131  RH  085%=      5-min Rain = 0
KST3 190558Z 08007KT 16/13 A2996 RMK A01 T01560132  RH  086%=      5-min Rain = 0
KST3 190559Z 10008KT 16/13 A2996 RMK A01 T01550133  RH  086%=      5-min Rain = 0
KST3 190600Z 11009KT 15/13 A2996 RMK A01 T01530133  RH  088%=      5-min Rain = 0
KST3 190601Z 11009KT 15/13 A2996 RMK A01 T01520134  RH  089%=      5-min Rain = 0
KST3 190602Z 10008KT 15/14 A2996 RMK A01 T01510135  RH  090%=      5-min Rain = 0
KST3 190603Z 09006KT 15/14 A2996 RMK A01 T01500135  RH  090%=      5-min Rain = 0
KST3 190604Z 08007KT 15/13 A2996 RMK A01 T01500133  RH  089%=      5-min Rain = 0
KST3 190605Z 09007KT 15/13 A2996 RMK A01 T01520133  RH  088%=      5-min Rain = 0
KST3 190606Z 10007KT 15/13 A2997 RMK A01 T01530132  RH  088%=      5-min Rain = 0
KST3 190607Z 12008KT 15/13 A2997 RMK A01 T01530132  RH  088%=      5-min Rain = 0
KST3 190608Z 13007KT 15/13 A2997 RMK A01 T01530134  RH  088%=      5-min Rain = 0
KST3 190609Z 13007KT 15/13 A2997 RMK A01 T01520134  RH  089%=      5-min Rain = 0
KST3 190610Z 12006KT 15/13 A2997 RMK A01 T01510134  RH  090%=      5-min Rain = 0
KST3 190611Z 12003KT 15/13 A2997 RMK A01 T01510134  RH  090%=      5-min Rain = 0
KST3 190612Z 14004KT 15/13 A2996 RMK A01 T01510134  RH  089%=      5-min Rain = 0
KST3 190613Z 13004KT 15/13 A2996 RMK A01 T01510134  RH  090%=      5-min Rain = 0
KST3 190614Z 14005KT 15/13 A2996 RMK A01 T01510133  RH  089%=      5-min Rain = 0
KST3 190615Z 15005KT 15/13 A2997 RMK A01 T01520134  RH  089%=      5-min Rain = 0
KST3 190616Z 15005KT 15/13 A2997 RMK A01 T01510134  RH  090%=      5-min Rain = 0
KST3 190617Z 15004KT 15/13 A2997 RMK A01 T01500134  RH  090%=      5-min Rain = 0
KST3 190618Z 15005KT 15/13 A2997 RMK A01 T01490134  RH  091%=      5-min Rain = 0
KST3 190619Z 15004KT 15/14 A2997 RMK A01 T01480135  RH  092%=      5-min Rain = 0
KST3 190620Z 15004KT 15/14 A2997 RMK A01 T01480135  RH  092%=      5-min Rain = 0
KST3 190621Z 15004KT 15/14 A2997 RMK A01 T01480135  RH  092%=      5-min Rain = 0
KST3 190622Z 15003KT 15/14 A2997 RMK A01 T01480135  RH  092%=      5-min Rain = 0
KST3 190623Z 16003KT 15/14 A2997 RMK A01 T01480135  RH  092%=      5-min Rain = 0
KST3 190624Z 16004KT 15/14 A2997 RMK A01 T01480135  RH  092%=      5-min Rain = 0
KST3 190625Z 15004KT 15/14 A2997 RMK A01 T01480135  RH  091%=      5-min Rain = 0
KST3 190626Z 15004KT 15/14 A2997 RMK A01 T01490135  RH  091%=      5-min Rain = 0
KST3 190627Z 15004KT 15/13 A2997 RMK A01 T01490134  RH  091%=      5-min Rain = 0
KST3 190628Z 14004KT 15/13 A2997 RMK A01 T01500134  RH  090%=      5-min Rain = 0
KST3 190629Z 14004KT 15/13 A2997 RMK A01 T01500134  RH  090%=      5-min Rain = 0
KST3 190630Z 14003KT 15/13 A2997 RMK A01 T01500134  RH  090%=      5-min Rain = 0
KST3 190631Z 16002KT 15/13 A2997 RMK A01 T01500134  RH  090%=      5-min Rain = 0
KST3 190632Z 16003KT 15/13 A2997 RMK A01 T01500134  RH  090%=      5-min Rain = 0
KST3 190633Z 16004KT 15/13 A2997 RMK A01 T01500134  RH  090%=      5-min Rain = 0
KST3 190634Z 16005KT 15/13 A2997 RMK A01 T01500134  RH  090%=      5-min Rain = 0
KST3 190635Z 16006KT 15/14 A2998 RMK A01 T01500135  RH  091%=      5-min Rain = 0
KST3 190636Z 16008KT 15/14 A2998 RMK A01 T01500136  RH  091%=      5-min Rain = 0
KST3 190637Z 16008KT 15/14 A2998 RMK A01 T01490136  RH  092%=      5-min Rain = 0
KST3 190638Z 16008KT 15/14 A2998 RMK A01 T01500137  RH  092%=      5-min Rain = 0
KST3 190639Z 17007KT 15/14 A2998 RMK A01 T01500137  RH  092%=      5-min Rain = 0
KST3 190640Z 17007KT 15/14 A2998 RMK A01 T01510137  RH  092%=      5-min Rain = 0
KST3 190641Z 17007KT 15/14 A2998 RMK A01 T01520138  RH  091%=      5-min Rain = 0
KST3 190642Z 17007KT 15/14 A2998 RMK A01 T01520137  RH  091%=      5-min Rain = 0
KST3 190643Z 17007KT 15/14 A2998 RMK A01 T01530137  RH  090%=      5-min Rain = 0
KST3 190644Z 16006KT 15/14 A2998 RMK A01 T01530137  RH  090%=      5-min Rain = 0
KST3 190645Z 15005KT 15/14 A2997 RMK A01 T01540136  RH  089%=      5-min Rain = 0
KST3 190646Z 16004KT 15/14 A2997 RMK A01 T01540136  RH  089%=      5-min Rain = 0
KST3 190647Z 15005KT 15/14 A2997 RMK A01 T01540136  RH  089%=      5-min Rain = 0
KST3 190648Z 15005KT 15/14 A2997 RMK A01 T01540135  RH  089%=      5-min Rain = 0
KST3 190649Z 16005KT 15/14 A2997 RMK A01 T01540135  RH  088%=      5-min Rain = 0
KST3 190650Z 16006KT 15/14 A2997 RMK A01 T01540135  RH  089%=      5-min Rain = 0
KST3 190651Z 16005KT 15/14 A2997 RMK A01 T01540136  RH  089%=      5-min Rain = 0
KST3 190652Z 16006KT 15/14 A2998 RMK A01 T01540137  RH  090%=      5-min Rain = 0
KST3 190653Z 17006KT 15/14 A2998 RMK A01 T01540137  RH  090%=      5-min Rain = 0
KST3 190654Z 16005KT 15/14 A2998 RMK A01 T01540137  RH  090%=      5-min Rain = 0
KST3 190655Z 17006KT 15/14 A2998 RMK A01 T01540137  RH  090%=      5-min Rain = 0
KST3 190656Z 17006KT 15/14 A2998 RMK A01 T01540136  RH  089%=      5-min Rain = 0
KST3 190657Z 17004KT 15/14 A2997 RMK A01 T01540135  RH  089%=      5-min Rain = 0
KST3 190658Z 18004KT 16/14 A2997 RMK A01 T01550136  RH  089%=      5-min Rain = 0
KST3 190659Z 21002KT 16/14 A2997 RMK A01 T01550135  RH  088%=      5-min Rain = 0
KST3 190700Z 20003KT 16/14 A2997 RMK A01 T01550135  RH  088%=      5-min Rain = 0
KST3 190701Z 18003KT 16/14 A2997 RMK A01 T01560137  RH  088%=      5-min Rain = 0
KST3 190702Z 17004KT 16/14 A2997 RMK A01 T01550136  RH  088%=      5-min Rain = 0
KST3 190703Z 17005KT 16/14 A2997 RMK A01 T01560136  RH  088%=      5-min Rain = 0
KST3 190704Z 17005KT 16/14 A2997 RMK A01 T01560136  RH  088%=      5-min Rain = 0
KST3 190705Z 17005KT 16/14 A2998 RMK A01 T01560136  RH  088%=      5-min Rain = 0
KST3 190706Z 17005KT 16/14 A2997 RMK A01 T01560136  RH  088%=      5-min Rain = 0
KST3 190707Z 16005KT 16/14 A2997 RMK A01 T01560136  RH  088%=      5-min Rain = 0
KST3 190708Z 16004KT 16/14 A2997 RMK A01 T01560137  RH  088%=      5-min Rain = 0
KST3 190709Z 17004KT 16/14 A2997 RMK A01 T01560137  RH  088%=      5-min Rain = 0
KST3 190710Z 16003KT 16/14 A2997 RMK A01 T01560137  RH  088%=      5-min Rain = 0
KST3 190711Z 16004KT 16/14 A2997 RMK A01 T01560137  RH  088%=      5-min Rain = 0
KST3 190712Z 16003KT 16/14 A2997 RMK A01 T01560137  RH  088%=      5-min Rain = 0
KST3 190713Z 18003KT 16/14 A2997 RMK A01 T01560136  RH  088%=      5-min Rain = 0
KST3 190714Z 17003KT 16/14 A2997 RMK A01 T01560135  RH  087%=      5-min Rain = 0
KST3 190715Z 17003KT 16/14 A2997 RMK A01 T01560135  RH  087%=      5-min Rain = 0
KST3 190716Z 17003KT 16/14 A2997 RMK A01 T01570135  RH  087%=      5-min Rain = 0
KST3 190717Z 17004KT 16/13 A2997 RMK A01 T01570134  RH  086%=      5-min Rain = 0
KST3 190718Z 17003KT 16/13 A2997 RMK A01 T01580133  RH  085%=      5-min Rain = 0
KST3 190719Z 17003KT 16/13 A2997 RMK A01 T01580134  RH  085%=      5-min Rain = 0
KST3 190720Z 17003KT 16/14 A2997 RMK A01 T01590135  RH  086%=      5-min Rain = 0
KST3 190721Z 17003KT 16/13 A2997 RMK A01 T01590134  RH  085%=      5-min Rain = 0
KST3 190722Z 17004KT 16/13 A2997 RMK A01 T01590134  RH  085%=      5-min Rain = 0
KST3 190723Z 18003KT 16/14 A2997 RMK A01 T01590135  RH  085%=      5-min Rain = 0
KST3 190724Z 18004KT 16/14 A2997 RMK A01 T01590135  RH  086%=      5-min Rain = 0
KST3 190725Z 18003KT 16/14 A2997 RMK A01 T01590135  RH  085%=      5-min Rain = 0
KST3 190726Z 18003KT 16/14 A2997 RMK A01 T01590135  RH  085%=      5-min Rain = 0
KST3 190727Z 17003KT 16/14 A2997 RMK A01 T01590136  RH  086%=      5-min Rain = 0
KST3 190728Z 18003KT 16/14 A2997 RMK A01 T01590135  RH  086%=      5-min Rain = 0
KST3 190729Z 17002KT 16/14 A2996 RMK A01 T01590135  RH  086%=      5-min Rain = 0
KST3 190730Z 16003KT 16/13 A2996 RMK A01 T01590134  RH  085%=      5-min Rain = 0
KST3 190731Z 16003KT 16/14 A2996 RMK A01 T01590135  RH  086%=      5-min Rain = 0
KST3 190732Z 16003KT 16/13 A2996 RMK A01 T01590134  RH  085%=      5-min Rain = 0
KST3 190733Z 15004KT 16/14 A2996 RMK A01 T01590135  RH  086%=      5-min Rain = 0
KST3 190734Z 15004KT 16/14 A2996 RMK A01 T01590137  RH  087%=      5-min Rain = 0
KST3 190735Z 16005KT 16/14 A2996 RMK A01 T01590136  RH  086%=      5-min Rain = 0
KST3 190736Z 16005KT 16/14 A2996 RMK A01 T01590136  RH  086%=      5-min Rain = 0
KST3 190737Z 16005KT 16/14 A2996 RMK A01 T01590136  RH  086%=      5-min Rain = 0
KST3 190738Z 17004KT 16/14 A2996 RMK A01 T01590135  RH  086%=      5-min Rain = 0
KST3 190739Z 17004KT 16/14 A2996 RMK A01 T01590135  RH  086%=      5-min Rain = 0
KST3 190740Z 17003KT 16/14 A2996 RMK A01 T01590135  RH  086%=      5-min Rain = 0
KST3 190741Z 17003KT 16/14 A2996 RMK A01 T01590135  RH  086%=      5-min Rain = 0
KST3 190742Z 17002KT 16/14 A2996 RMK A01 T01590135  RH  086%=      5-min Rain = 0
KST3 190743Z 18003KT 16/13 A2996 RMK A01 T01590134  RH  085%=      5-min Rain = 0
KST3 190744Z 18003KT 16/14 A2996 RMK A01 T01590135  RH  086%=      5-min Rain = 0
KST3 190745Z 18003KT 16/14 A2996 RMK A01 T01590135  RH  086%=      5-min Rain = 0
KST3 190746Z 18004KT 16/14 A2996 RMK A01 T01580135  RH  086%=      5-min Rain = 0
KST3 190747Z 19004KT 16/14 A2996 RMK A01 T01580135  RH  086%=      5-min Rain = 0
KST3 190748Z 19003KT 16/14 A2996 RMK A01 T01570135  RH  087%=      5-min Rain = 0
KST3 190749Z 20003KT 16/14 A2996 RMK A01 T01560136  RH  088%=      5-min Rain = 0
KST3 190750Z 21003KT 16/14 A2996 RMK A01 T01550136  RH  089%=      5-min Rain = 0
KST3 190751Z 21003KT 15/14 A2996 RMK A01 T01540137  RH  089%=      5-min Rain = 0
KST3 190752Z 21003KT 15/14 A2996 RMK A01 T01530137  RH  090%=      5-min Rain = 0
KST3 190753Z 22002KT 15/14 A2996 RMK A01 T01520138  RH  091%=      5-min Rain = 0
KST3 190754Z 23002KT 15/14 A2996 RMK A01 T01520138  RH  092%=      5-min Rain = 0
KST3 190755Z 23002KT 15/14 A2995 RMK A01 T01510138  RH  092%=      5-min Rain = 0
KST3 190756Z 23002KT 15/14 A2995 RMK A01 T01510137  RH  091%=      5-min Rain = 0
KST3 190757Z 24002KT 15/14 A2995 RMK A01 T01520136  RH  090%=      5-min Rain = 0
KST3 190758Z 24002KT 15/14 A2995 RMK A01 T01520135  RH  090%=      5-min Rain = 0
KST3 190759Z 23002KT 15/14 A2995 RMK A01 T01520135  RH  090%=      5-min Rain = 0
KST3 190800Z 23002KT 15/14 A2995 RMK A01 T01520135  RH  090%=      5-min Rain = 0
KST3 190801Z 23002KT 15/14 A2995 RMK A01 T01510135  RH  090%=      5-min Rain = 0
KST3 190802Z 22002KT 15/14 A2995 RMK A01 T01510135  RH  090%=      5-min Rain = 0
KST3 190803Z 21002KT 15/13 A2995 RMK A01 T01500134  RH  090%=      5-min Rain = 0
KST3 190804Z 21002KT 15/13 A2995 RMK A01 T01510134  RH  090%=      5-min Rain = 0
KST3 190805Z 21002KT 15/13 A2995 RMK A01 T01510134  RH  089%=      5-min Rain = 0
KST3 190806Z 21002KT 15/13 A2995 RMK A01 T01520133  RH  089%=      5-min Rain = 0
KST3 190807Z 21001KT 15/13 A2994 RMK A01 T01520133  RH  088%=      5-min Rain = 0
KST3 190808Z 21001KT 15/13 A2994 RMK A01 T01520132  RH  088%=      5-min Rain = 0
KST3 190809Z 21001KT 15/13 A2994 RMK A01 T01530132  RH  087%=      5-min Rain = 0
KST3 190810Z 19001KT 15/13 A2994 RMK A01 T01540131  RH  087%=      5-min Rain = 0
KST3 190811Z 16001KT 15/13 A2994 RMK A01 T01540131  RH  086%=      5-min Rain = 0
KST3 190812Z 15001KT 16/13 A2994 RMK A01 T01550131  RH  086%=      5-min Rain = 0
KST3 190813Z 15002KT 16/13 A2994 RMK A01 T01550130  RH  085%=      5-min Rain = 0
KST3 190814Z 15002KT 16/13 A2994 RMK A01 T01560132  RH  085%=      5-min Rain = 0
KST3 190815Z 16003KT 16/13 A2994 RMK A01 T01560130  RH  085%=      5-min Rain = 0
KST3 190816Z 15003KT 16/13 A2994 RMK A01 T01570130  RH  084%=      5-min Rain = 0
KST3 190817Z 15003KT 16/13 A2994 RMK A01 T01580130  RH  083%=      5-min Rain = 0
KST3 190818Z 15003KT 16/13 A2994 RMK A01 T01590130  RH  083%=      5-min Rain = 0
KST3 190819Z 15003KT 16/13 A2994 RMK A01 T01590130  RH  083%=      5-min Rain = 0
KST3 190820Z 15003KT 16/13 A2994 RMK A01 T01590131  RH  083%=      5-min Rain = 0
KST3 190821Z 15003KT 16/13 A2994 RMK A01 T01590131  RH  083%=      5-min Rain = 0
KST3 190822Z 15003KT 16/13 A2994 RMK A01 T01590131  RH  083%=      5-min Rain = 0
KST3 190823Z 16004KT 16/13 A2994 RMK A01 T01590130  RH  083%=      5-min Rain = 0
KST3 190824Z 17004KT 16/13 A2994 RMK A01 T01590130  RH  083%=      5-min Rain = 0
KST3 190825Z 17003KT 16/13 A2994 RMK A01 T01590131  RH  083%=      5-min Rain = 0
KST3 190826Z 16003KT 16/13 A2994 RMK A01 T01590131  RH  083%=      5-min Rain = 0
KST3 190827Z 16003KT 16/13 A2993 RMK A01 T01590130  RH  083%=      5-min Rain = 0
KST3 190828Z 14003KT 16/13 A2993 RMK A01 T01590130  RH  083%=      5-min Rain = 0
KST3 190829Z 12003KT 16/13 A2992 RMK A01 T01590130  RH  083%=      5-min Rain = 0
KST3 190830Z 12004KT 16/13 A2992 RMK A01 T01590130  RH  083%=      5-min Rain = 0
KST3 190831Z 12003KT 16/13 A2992 RMK A01 T01590130  RH  083%=      5-min Rain = 0
KST3 190832Z 12004KT 16/13 A2992 RMK A01 T01590130  RH  083%=      5-min Rain = 0
KST3 190833Z 13004KT 16/13 A2992 RMK A01 T01580131  RH  084%=      5-min Rain = 0
KST3 190834Z 13004KT 16/13 A2992 RMK A01 T01580130  RH  084%=      5-min Rain = 0
KST3 190835Z 14004KT 16/13 A2992 RMK A01 T01580130  RH  084%=      5-min Rain = 0
KST3 190836Z 15004KT 16/13 A2992 RMK A01 T01570130  RH  084%=      5-min Rain = 0
KST3 190837Z 15004KT 16/13 A2992 RMK A01 T01580130  RH  083%=      5-min Rain = 0
KST3 190838Z 16004KT 16/13 A2992 RMK A01 T01580130  RH  084%=      5-min Rain = 0
KST3 190839Z 16004KT 16/13 A2992 RMK A01 T01580132  RH  085%=      5-min Rain = 0
KST3 190840Z 17004KT 16/13 A2993 RMK A01 T01560132  RH  086%=      5-min Rain = 0
KST3 190841Z 17004KT 16/13 A2993 RMK A01 T01550132  RH  086%=      5-min Rain = 0
KST3 190842Z 17004KT 16/13 A2993 RMK A01 T01550132  RH  086%=      5-min Rain = 0
KST3 190843Z 18004KT 16/13 A2993 RMK A01 T01550132  RH  086%=      5-min Rain = 0
KST3 190844Z 18004KT 16/13 A2993 RMK A01 T01550132  RH  086%=      5-min Rain = 0
KST3 190845Z 19004KT 15/13 A2993 RMK A01 T01540132  RH  087%=      5-min Rain = 0
KST3 190846Z 20005KT 15/13 A2993 RMK A01 T01520133  RH  088%=      5-min Rain = 0
KST3 190847Z 20004KT 15/13 A2993 RMK A01 T01490132  RH  089%=      5-min Rain = 0
KST3 190848Z 20004KT 15/13 A2993 RMK A01 T01480132  RH  090%=      5-min Rain = 0
KST3 190849Z 19004KT 15/13 A2992 RMK A01 T01470132  RH  091%=      5-min Rain = 0
KST3 190850Z 19004KT 15/13 A2992 RMK A01 T01470132  RH  091%=      5-min Rain = 0
KST3 190851Z 19004KT 15/13 A2992 RMK A01 T01460132  RH  091%=      5-min Rain = 0
KST3 190852Z 19004KT 15/13 A2992 RMK A01 T01460132  RH  091%=      5-min Rain = 0
KST3 190853Z 19004KT 15/13 A2992 RMK A01 T01460132  RH  091%=      5-min Rain = 0
KST3 190854Z 19004KT 15/13 A2992 RMK A01 T01460132  RH  091%=      5-min Rain = 0
KST3 190855Z 18004KT 15/13 A2991 RMK A01 T01480132  RH  090%=      5-min Rain = 0
KST3 190856Z 18004KT 15/13 A2991 RMK A01 T01500132  RH  089%=      5-min Rain = 0
KST3 190857Z 18005KT 15/13 A2991 RMK A01 T01520132  RH  088%=      5-min Rain = 0
KST3 190858Z 18005KT 15/13 A2991 RMK A01 T01530132  RH  088%=      5-min Rain = 0
KST3 190859Z 18005KT 15/13 A2991 RMK A01 T01530131  RH  087%=      5-min Rain = 0
KST3 190900Z 18005KT 15/13 A2991 RMK A01 T01540131  RH  086%=      5-min Rain = 0
KST3 190901Z 18005KT 15/13 A2991 RMK A01 T01540131  RH  086%=      5-min Rain = 0
KST3 190902Z 18004KT 15/13 A2991 RMK A01 T01540131  RH  086%=      5-min Rain = 0
KST3 190903Z 19004KT 15/13 A2991 RMK A01 T01540132  RH  087%=      5-min Rain = 0
KST3 190904Z 20003KT 15/13 A2991 RMK A01 T01530131  RH  087%=      5-min Rain = 0
KST3 190905Z 22003KT 15/13 A2991 RMK A01 T01530130  RH  086%=      5-min Rain = 0
KST3 190906Z 24003KT 15/13 A2991 RMK A01 T01530130  RH  086%=      5-min Rain = 0
KST3 190907Z 24003KT 15/13 A2992 RMK A01 T01520130  RH  086%=      5-min Rain = 0
KST3 190908Z 25002KT 15/13 A2992 RMK A01 T01520130  RH  087%=      5-min Rain = 0
KST3 190909Z 25003KT 15/13 A2992 RMK A01 T01510130  RH  087%=      5-min Rain = 0
KST3 190910Z 24003KT 15/13 A2991 RMK A01 T01490129  RH  088%=      5-min Rain = 0
KST3 190911Z 23003KT 15/13 A2991 RMK A01 T01470129  RH  088%=      5-min Rain = 0
KST3 190912Z 22003KT 15/13 A2991 RMK A01 T01460129  RH  089%=      5-min Rain = 0
KST3 190913Z 22003KT 15/13 A2992 RMK A01 T01460129  RH  090%=      5-min Rain = 0
KST3 190914Z 23003KT 15/13 A2991 RMK A01 T01460129  RH  090%=      5-min Rain = 0
KST3 190915Z 25003KT 15/13 A2991 RMK A01 T01460128  RH  089%=      5-min Rain = 0
KST3 190916Z 25003KT 15/13 A2991 RMK A01 T01470128  RH  089%=      5-min Rain = 0
KST3 190917Z 26002KT 15/13 A2991 RMK A01 T01470128  RH  089%=      5-min Rain = 0
KST3 190918Z 26002KT 15/13 A2992 RMK A01 T01470128  RH  089%=      5-min Rain = 0
KST3 190919Z 25002KT 15/13 A2992 RMK A01 T01470128  RH  088%=      5-min Rain = 0
KST3 190920Z 24002KT 15/13 A2992 RMK A01 T01470127  RH  088%=      5-min Rain = 0
KST3 190921Z 23003KT 15/13 A2992 RMK A01 T01480127  RH  088%=      5-min Rain = 0
KST3 190922Z 23003KT 15/13 A2992 RMK A01 T01480127  RH  088%=      5-min Rain = 0
KST3 190923Z 24003KT 15/13 A2992 RMK A01 T01470128  RH  088%=      5-min Rain = 0
KST3 190924Z 26003KT 15/13 A2991 RMK A01 T01480128  RH  088%=      5-min Rain = 0
KST3 190925Z 27003KT 15/13 A2991 RMK A01 T01490128  RH  087%=      5-min Rain = 0
KST3 190926Z 26003KT 15/13 A2991 RMK A01 T01490128  RH  087%=      5-min Rain = 0
KST3 190927Z 25003KT 15/13 A2991 RMK A01 T01490129  RH  088%=      5-min Rain = 0
KST3 190928Z 25003KT 15/13 A2991 RMK A01 T01480128  RH  088%=      5-min Rain = 0
KST3 190929Z 24003KT 15/13 A2992 RMK A01 T01480128  RH  088%=      5-min Rain = 0
KST3 190930Z 25003KT 15/13 A2992 RMK A01 T01480129  RH  088%=      5-min Rain = 0
KST3 190931Z 27003KT 15/13 A2992 RMK A01 T01470128  RH  088%=      5-min Rain = 0
KST3 190932Z 29005KT 15/13 A2992 RMK A01 T01460129  RH  089%=      5-min Rain = 0
KST3 190933Z 29006KT 15/13 A2992 RMK A01 T01450130  RH  091%=      5-min Rain = 0
KST3 190934Z 29006KT 14/13 A2992 RMK A01 T01440131  RH  092%=      5-min Rain = 0
KST3 190935Z 30006KT 14/13 A2992 RMK A01 T01440132  RH  092%=      5-min Rain = 0
KST3 190936Z 29006KT 15/13 A2992 RMK A01 T01450132  RH  092%=      5-min Rain = 0
KST3 190937Z 29006KT 15/13 A2992 RMK A01 T01450133  RH  092%=      5-min Rain = 0
KST3 190938Z 29007KT 15/13 A2993 RMK A01 T01450133  RH  092%=      5-min Rain = 0
KST3 190939Z 30007KT 15/13 A2993 RMK A01 T01450132  RH  092%=      5-min Rain = 0
KST3 190940Z 30007KT 15/13 A2993 RMK A01 T01450132  RH  092%=      5-min Rain = 0
KST3 190941Z 30007KT 14/13 A2993 RMK A01 T01440132  RH  092%=      5-min Rain = 0
KST3 190942Z 30007KT 15/13 A2993 RMK A01 T01450132  RH  092%=      5-min Rain = 0
KST3 190943Z 31008KT 15/13 A2993 RMK A01 T01450132  RH  092%=      5-min Rain = 0
KST3 190944Z 30008KT 15/13 A2993 RMK A01 T01450133  RH  092%=      5-min Rain = 0
KST3 190945Z 31008KT 15/13 A2993 RMK A01 T01450133  RH  093%=      5-min Rain = 0
KST3 190946Z 31009KT 14/13 A2993 RMK A01 T01440132  RH  093%=      5-min Rain = 0
KST3 190947Z 31009KT 14/13 A2993 RMK A01 T01440133  RH  093%=      5-min Rain = 0
KST3 190948Z 31009KT 14/13 A2993 RMK A01 T01440133  RH  093%=      5-min Rain = 0
KST3 190949Z 31008KT 14/13 A2993 RMK A01 T01430132  RH  093%=      5-min Rain = 0
KST3 190950Z 31008KT 14/13 A2993 RMK A01 T01430133  RH  094%=      5-min Rain = 0
KST3 190951Z 31008KT 14/13 A2993 RMK A01 T01420133  RH  094%=      5-min Rain = 0
KST3 190952Z 30007KT 14/13 A2993 RMK A01 T01420133  RH  094%=      5-min Rain = 0
KST3 190953Z 30007KT 14/13 A2993 RMK A01 T01420132  RH  093%=      5-min Rain = 0
KST3 190954Z 30006KT 14/13 A2993 RMK A01 T01440132  RH  092%=      5-min Rain = 0
KST3 190955Z 30006KT 15/13 A2993 RMK A01 T01450131  RH  091%=      5-min Rain = 0
KST3 190956Z 30006KT 15/13 A2993 RMK A01 T01460131  RH  090%=      5-min Rain = 0
KST3 190957Z 29006KT 15/13 A2993 RMK A01 T01460131  RH  090%=      5-min Rain = 0
KST3 190958Z 29006KT 15/13 A2993 RMK A01 T01450130  RH  091%=      5-min Rain = 0
KST3 190959Z 29007KT 14/13 A2993 RMK A01 T01430130  RH  092%=      5-min Rain = 0
KST3 191000Z 29007KT 14/13 A2993 RMK A01 T01420130  RH  093%=      5-min Rain = 0
KST3 191001Z 29006KT 14/13 A2993 RMK A01 T01410130  RH  093%=      5-min Rain = 0
KST3 191002Z 29006KT 14/13 A2993 RMK A01 T01400130  RH  094%=      5-min Rain = 0
KST3 191003Z 29006KT 14/13 A2993 RMK A01 T01390130  RH  094%=      5-min Rain = 0
KST3 191004Z 29007KT 14/13 A2993 RMK A01 T01390129  RH  094%=      5-min Rain = 0
KST3 191005Z 29007KT 14/13 A2992 RMK A01 T01390129  RH  094%=      5-min Rain = 0
KST3 191006Z 29007KT 14/13 A2992 RMK A01 T01390129  RH  094%=      5-min Rain = 0
KST3 191007Z 29007KT 14/13 A2992 RMK A01 T01390129  RH  094%=      5-min Rain = 0
KST3 191008Z 29006KT 14/13 A2992 RMK A01 T01390129  RH  094%=      5-min Rain = 0
KST3 191009Z 29006KT 14/13 A2992 RMK A01 T01390129  RH  094%=      5-min Rain = 0
KST3 191010Z 29006KT 14/13 A2992 RMK A01 T01390129  RH  094%=      5-min Rain = 0
KST3 191011Z 29006KT 14/13 A2992 RMK A01 T01390129  RH  093%=      5-min Rain = 0
KST3 191012Z 29007KT 14/13 A2992 RMK A01 T01390129  RH  094%=      5-min Rain = 0
KST3 191013Z 29007KT 14/13 A2992 RMK A01 T01390129  RH  094%=      5-min Rain = 0
KST3 191014Z 29007KT 14/13 A2992 RMK A01 T01380128  RH  094%=      5-min Rain = 0
KST3 191015Z 29007KT 14/13 A2992 RMK A01 T01380129  RH  094%=      5-min Rain = 0
KST3 191016Z 30007KT 14/13 A2992 RMK A01 T01390129  RH  094%=      5-min Rain = 0
KST3 191017Z 29007KT 14/13 A2992 RMK A01 T01400129  RH  093%=      5-min Rain = 0
KST3 191018Z 30007KT 14/13 A2992 RMK A01 T01420129  RH  092%=      5-min Rain = 0
KST3 191019Z 30008KT 14/13 A2992 RMK A01 T01430129  RH  091%=      5-min Rain = 0
KST3 191020Z 30008KT 14/13 A2992 RMK A01 T01440129  RH  090%=      5-min Rain = 0
KST3 191021Z 30008KT 15/13 A2992 RMK A01 T01450129  RH  090%=      5-min Rain = 0
KST3 191022Z 30008KT 15/13 A2992 RMK A01 T01450128  RH  089%=      5-min Rain = 0
KST3 191023Z 31008KT 15/13 A2992 RMK A01 T01460129  RH  090%=      5-min Rain = 0
KST3 191024Z 30008KT 15/13 A2992 RMK A01 T01450129  RH  090%=      5-min Rain = 0
KST3 191025Z 30008KT 14/13 A2992 RMK A01 T01440130  RH  091%=      5-min Rain = 0
KST3 191026Z 31009KT 14/13 A2992 RMK A01 T01430130  RH  092%=      5-min Rain = 0
KST3 191027Z 31009KT 14/13 A2992 RMK A01 T01420130  RH  092%=      5-min Rain = 0
KST3 191028Z 31008KT 14/13 A2992 RMK A01 T01420131  RH  093%=      5-min Rain = 0
KST3 191029Z 30009KT 14/13 A2992 RMK A01 T01410131  RH  093%=      5-min Rain = 0
KST3 191030Z 30008KT 14/13 A2992 RMK A01 T01410131  RH  094%=      5-min Rain = 0
KST3 191031Z 30008KT 14/13 A2992 RMK A01 T01410131  RH  094%=      5-min Rain = 0
KST3 191032Z 30008KT 14/13 A2992 RMK A01 T01420131  RH  094%=      5-min Rain = 0
KST3 191033Z 30008KT 14/13 A2992 RMK A01 T01420131  RH  093%=      5-min Rain = 0
KST3 191034Z 30008KT 14/13 A2992 RMK A01 T01420131  RH  093%=      5-min Rain = 0
KST3 191035Z 30008KT 14/13 A2992 RMK A01 T01420131  RH  093%=      5-min Rain = 0
KST3 191036Z 30007KT 14/13 A2992 RMK A01 T01420131  RH  093%=      5-min Rain = 0
KST3 191037Z 30008KT 14/13 A2992 RMK A01 T01420131  RH  093%=      5-min Rain = 0
KST3 191038Z 30009KT 14/13 A2992 RMK A01 T01410131  RH  093%=      5-min Rain = 0
KST3 191039Z 30009KT 14/13 A2992 RMK A01 T01410131  RH  093%=      5-min Rain = 0
KST3 191040Z 30009KT 14/13 A2992 RMK A01 T01410131  RH  093%=      5-min Rain = 0
KST3 191041Z 30009KT 14/13 A2992 RMK A01 T01420131  RH  093%=      5-min Rain = 0
KST3 191042Z 30009KT 14/13 A2992 RMK A01 T01410131  RH  093%=      5-min Rain = 0
KST3 191043Z 30008KT 14/13 A2992 RMK A01 T01410131  RH  094%=      5-min Rain = 0
KST3 191044Z 30009KT 14/13 A2992 RMK A01 T01400131  RH  094%=      5-min Rain = 0
KST3 191045Z 30009KT 14/13 A2992 RMK A01 T01400131  RH  094%=      5-min Rain = 0
KST3 191046Z 30008KT 14/13 A2992 RMK A01 T01400131  RH  095%=      5-min Rain = 0
KST3 191047Z 30008KT 14/13 A2992 RMK A01 T01400131  RH  094%=      5-min Rain = 0
KST3 191048Z 30007KT 14/13 A2992 RMK A01 T01400131  RH  094%=      5-min Rain = 0
KST3 191049Z 30007KT 14/13 A2992 RMK A01 T01400131  RH  094%=      5-min Rain = 0
KST3 191050Z 30007KT 14/13 A2992 RMK A01 T01390131  RH  095%=      5-min Rain = 0
KST3 191051Z 30008KT 14/13 A2991 RMK A01 T01390131  RH  095%=      5-min Rain = 0
KST3 191052Z 30007KT 14/13 A2991 RMK A01 T01390131  RH  095%=      5-min Rain = 0
KST3 191053Z 30008KT 14/13 A2991 RMK A01 T01400131  RH  095%=      5-min Rain = 0
KST3 191054Z 30008KT 14/13 A2991 RMK A01 T01400131  RH  094%=      5-min Rain = 0
KST3 191055Z 30008KT 14/13 A2992 RMK A01 T01410131  RH  094%=      5-min Rain = 0
KST3 191056Z 30008KT 14/13 A2992 RMK A01 T01420131  RH  093%=      5-min Rain = 0
KST3 191057Z 30008KT 14/13 A2992 RMK A01 T01420131  RH  093%=      5-min Rain = 0
KST3 191058Z 30009KT 14/13 A2992 RMK A01 T01420131  RH  093%=      5-min Rain = 0
KST3 191059Z 30009KT 14/13 A2992 RMK A01 T01410131  RH  093%=      5-min Rain = 0
KST3 191100Z 30009KT 14/13 A2992 RMK A01 T01410131  RH  094%=      5-min Rain = 0
KST3 191101Z 30009KT 14/13 A2992 RMK A01 T01410131  RH  093%=      5-min Rain = 0
KST3 191102Z 30009KT 14/13 A2992 RMK A01 T01420131  RH  093%=      5-min Rain = 0
KST3 191103Z 30009KT 14/13 A2992 RMK A01 T01420131  RH  093%=      5-min Rain = 0
KST3 191104Z 30009KT 14/13 A2992 RMK A01 T01420130  RH  093%=      5-min Rain = 0
KST3 191105Z 30010KT 14/13 A2992 RMK A01 T01430130  RH  092%=      5-min Rain = 0
KST3 191106Z 30009KT 14/13 A2992 RMK A01 T01440130  RH  091%=      5-min Rain = 0
KST3 191107Z 30009KT 14/13 A2992 RMK A01 T01440129  RH  090%=      5-min Rain = 0
KST3 191108Z 30008KT 15/13 A2992 RMK A01 T01450129  RH  090%=      5-min Rain = 0
KST3 191109Z 30008KT 15/13 A2992 RMK A01 T01460129  RH  090%=      5-min Rain = 0
KST3 191110Z 29007KT 15/13 A2992 RMK A01 T01450129  RH  090%=      5-min Rain = 0
KST3 191111Z 29007KT 14/13 A2992 RMK A01 T01440128  RH  090%=      5-min Rain = 0
KST3 191112Z 29007KT 14/13 A2992 RMK A01 T01430129  RH  091%=      5-min Rain = 0
KST3 191113Z 29008KT 14/13 A2992 RMK A01 T01420128  RH  091%=      5-min Rain = 0
KST3 191114Z 29008KT 14/13 A2992 RMK A01 T01420128  RH  092%=      5-min Rain = 0
KST3 191115Z 29008KT 14/13 A2992 RMK A01 T01410128  RH  092%=      5-min Rain = 0
KST3 191116Z 29008KT 14/13 A2992 RMK A01 T01410128  RH  092%=      5-min Rain = 0
KST3 191117Z 28007KT 14/13 A2992 RMK A01 T01400128  RH  092%=      5-min Rain = 0
KST3 191118Z 28007KT 14/13 A2992 RMK A01 T01400128  RH  093%=      5-min Rain = 0
KST3 191119Z 28007KT 14/13 A2992 RMK A01 T01400128  RH  093%=      5-min Rain = 0
KST3 191120Z 29008KT 14/13 A2993 RMK A01 T01400128  RH  092%=      5-min Rain = 0
KST3 191121Z 29008KT 14/13 A2993 RMK A01 T01400128  RH  092%=      5-min Rain = 0
KST3 191122Z 30008KT 14/13 A2993 RMK A01 T01400127  RH  092%=      5-min Rain = 0
KST3 191123Z 30008KT 14/13 A2993 RMK A01 T01430127  RH  090%=      5-min Rain = 0
KST3 191124Z 30007KT 15/13 A2992 RMK A01 T01450126  RH  088%=      5-min Rain = 0
KST3 191125Z 30007KT 15/13 A2992 RMK A01 T01480125  RH  086%=      5-min Rain = 0
KST3 191126Z 30006KT 15/13 A2992 RMK A01 T01500125  RH  085%=      5-min Rain = 0
KST3 191127Z 30006KT 15/13 A2992 RMK A01 T01500125  RH  085%=      5-min Rain = 0
KST3 191128Z 30006KT 15/13 A2992 RMK A01 T01510125  RH  085%=      5-min Rain = 0
KST3 191129Z 30006KT 15/13 A2992 RMK A01 T01510125  RH  084%=      5-min Rain = 0
KST3 191130Z 30006KT 15/13 A2992 RMK A01 T01510125  RH  084%=      5-min Rain = 0
KST3 191131Z 30006KT 15/12 A2992 RMK A01 T01510124  RH  084%=      5-min Rain = 0
KST3 191132Z 30006KT 15/12 A2992 RMK A01 T01510124  RH  084%=      5-min Rain = 0
KST3 191133Z 30006KT 15/12 A2992 RMK A01 T01510124  RH  084%=      5-min Rain = 0
KST3 191134Z 30006KT 15/12 A2992 RMK A01 T01510124  RH  084%=      5-min Rain = 0
KST3 191135Z 30006KT 15/12 A2993 RMK A01 T01520124  RH  083%=      5-min Rain = 0
KST3 191136Z 30006KT 15/12 A2993 RMK A01 T01520124  RH  083%=      5-min Rain = 0
KST3 191137Z 30006KT 15/12 A2993 RMK A01 T01520123  RH  083%=      5-min Rain = 0
KST3 191138Z 31006KT 15/12 A2993 RMK A01 T01530124  RH  083%=      5-min Rain = 0
KST3 191139Z 31006KT 15/12 A2993 RMK A01 T01530123  RH  083%=      5-min Rain = 0
KST3 191140Z 31005KT 15/12 A2993 RMK A01 T01530124  RH  083%=      5-min Rain = 0
KST3 191141Z 31005KT 15/12 A2993 RMK A01 T01530123  RH  082%=      5-min Rain = 0
KST3 191142Z 31006KT 15/12 A2993 RMK A01 T01530123  RH  082%=      5-min Rain = 0
KST3 191143Z 31006KT 15/12 A2993 RMK A01 T01530123  RH  083%=      5-min Rain = 0
KST3 191144Z 30005KT 15/12 A2993 RMK A01 T01530123  RH  082%=      5-min Rain = 0
KST3 191145Z 30005KT 15/12 A2993 RMK A01 T01530123  RH  082%=      5-min Rain = 0
KST3 191146Z 30006KT 15/12 A2993 RMK A01 T01540123  RH  082%=      5-min Rain = 0
KST3 191147Z 30006KT 15/12 A2993 RMK A01 T01540123  RH  082%=      5-min Rain = 0
KST3 191148Z 30007KT 15/12 A2993 RMK A01 T01540124  RH  082%=      5-min Rain = 0
KST3 191149Z 30006KT 15/12 A2993 RMK A01 T01540122  RH  081%=      5-min Rain = 0
KST3 191150Z 30006KT 16/12 A2993 RMK A01 T01550122  RH  081%=      5-min Rain = 0
KST3 191151Z 30007KT 16/12 A2993 RMK A01 T01560123  RH  081%=      5-min Rain = 0
KST3 191152Z 30007KT 16/13 A2993 RMK A01 T01550125  RH  082%=      5-min Rain = 0
KST3 191153Z 31008KT 15/13 A2993 RMK A01 T01540125  RH  083%=      5-min Rain = 0
KST3 191154Z 31008KT 15/13 A2993 RMK A01 T01520125  RH  084%=      5-min Rain = 0
KST3 191155Z 30008KT 15/13 A2993 RMK A01 T01520125  RH  084%=      5-min Rain = 0
KST3 191156Z 30007KT 15/13 A2993 RMK A01 T01510126  RH  085%=      5-min Rain = 0
KST3 191157Z 31007KT 15/13 A2993 RMK A01 T01510126  RH  085%=      5-min Rain = 0
KST3 191158Z 30007KT 15/13 A2993 RMK A01 T01510125  RH  084%=      5-min Rain = 0
KST3 191159Z 30007KT 15/13 A2993 RMK A01 T01520126  RH  084%=      5-min Rain = 0
KST3 191200Z 30008KT 15/13 A2993 RMK A01 T01510127  RH  085%=      5-min Rain = 0
KST3 191201Z 30008KT 15/13 A2993 RMK A01 T01510127  RH  086%=      5-min Rain = 0
KST3 191202Z 30008KT 15/13 A2993 RMK A01 T01500127  RH  086%=      5-min Rain = 0
KST3 191203Z 30008KT 15/13 A2993 RMK A01 T01510127  RH  085%=      5-min Rain = 0
KST3 191204Z 30008KT 15/13 A2993 RMK A01 T01510127  RH  085%=      5-min Rain = 0
KST3 191205Z 30007KT 15/13 A2993 RMK A01 T01520126  RH  084%=      5-min Rain = 0
KST3 191206Z 30008KT 15/13 A2993 RMK A01 T01520127  RH  085%=      5-min Rain = 0
KST3 191207Z 30008KT 15/13 A2993 RMK A01 T01520126  RH  084%=      5-min Rain = 0
KST3 191208Z 30007KT 15/13 A2993 RMK A01 T01530126  RH  084%=      5-min Rain = 0
KST3 191209Z 30006KT 15/13 A2993 RMK A01 T01530126  RH  084%=      5-min Rain = 0
KST3 191210Z 30005KT 15/13 A2993 RMK A01 T01530127  RH  084%=      5-min Rain = 0
KST3 191211Z 30006KT 15/13 A2993 RMK A01 T01530128  RH  085%=      5-min Rain = 0
KST3 191212Z 30006KT 15/13 A2993 RMK A01 T01530128  RH  085%=      5-min Rain = 0
KST3 191213Z 30006KT 15/13 A2993 RMK A01 T01520129  RH  086%=      5-min Rain = 0
KST3 191214Z 30006KT 15/13 A2993 RMK A01 T01520130  RH  086%=      5-min Rain = 0
KST3 191215Z 30005KT 15/13 A2993 RMK A01 T01520130  RH  087%=      5-min Rain = 0
KST3 191216Z 29004KT 15/13 A2993 RMK A01 T01520131  RH  087%=      5-min Rain = 0
KST3 191217Z 29004KT 15/13 A2993 RMK A01 T01520132  RH  088%=      5-min Rain = 0
KST3 191218Z 29004KT 15/13 A2993 RMK A01 T01520132  RH  088%=      5-min Rain = 0
KST3 191219Z 29005KT 15/13 A2993 RMK A01 T01510132  RH  088%=      5-min Rain = 0
KST3 191220Z 29005KT 15/13 A2993 RMK A01 T01520133  RH  089%=      5-min Rain = 0
KST3 191221Z 29005KT 15/13 A2993 RMK A01 T01520133  RH  089%=      5-min Rain = 0
KST3 191222Z 29005KT 15/13 A2993 RMK A01 T01520133  RH  088%=      5-min Rain = 0
KST3 191223Z 28004KT 15/13 A2993 RMK A01 T01530133  RH  088%=      5-min Rain = 0
KST3 191224Z 28005KT 15/13 A2993 RMK A01 T01530133  RH  087%=      5-min Rain = 0
KST3 191225Z 29005KT 15/13 A2993 RMK A01 T01540132  RH  087%=      5-min Rain = 0
KST3 191226Z 28005KT 16/13 A2993 RMK A01 T01550133  RH  087%=      5-min Rain = 0
KST3 191227Z 26004KT 16/13 A2993 RMK A01 T01550134  RH  087%=      5-min Rain = 0
KST3 191228Z 28005KT 16/13 A2993 RMK A01 T01550134  RH  087%=      5-min Rain = 0
KST3 191229Z 28004KT 16/13 A2993 RMK A01 T01550134  RH  087%=      5-min Rain = 0
KST3 191230Z 27003KT 16/14 A2992 RMK A01 T01560136  RH  088%=      5-min Rain = 0
KST3 191231Z 28004KT 16/14 A2992 RMK A01 T01560137  RH  088%=      5-min Rain = 0
KST3 191232Z 28004KT 16/13 A2992 RMK A01 T01570134  RH  087%=      5-min Rain = 0
KST3 191233Z 28005KT 16/13 A2992 RMK A01 T01570134  RH  086%=      5-min Rain = 0
KST3 191234Z 29006KT 16/13 A2993 RMK A01 T01570133  RH  085%=      5-min Rain = 0
KST3 191235Z 29006KT 16/13 A2993 RMK A01 T01580134  RH  085%=      5-min Rain = 0
KST3 191236Z 29005KT 16/14 A2993 RMK A01 T01590135  RH  086%=      5-min Rain = 0
KST3 191237Z 29006KT 16/14 A2993 RMK A01 T01590136  RH  086%=      5-min Rain = 0
KST3 191238Z 30005KT 16/14 A2993 RMK A01 T01600136  RH  086%=      5-min Rain = 0
KST3 191239Z 30007KT 16/13 A2993 RMK A01 T01610131  RH  082%=      5-min Rain = 0
KST3 191240Z 30007KT 16/13 A2993 RMK A01 T01630130  RH  081%=      5-min Rain = 0
KST3 191241Z 30007KT 16/13 A2992 RMK A01 T01640131  RH  081%=      5-min Rain = 0
KST3 191242Z 30006KT 16/13 A2993 RMK A01 T01640133  RH  082%=      5-min Rain = 0
KST3 191243Z 29006KT 16/14 A2993 RMK A01 T01640135  RH  083%=      5-min Rain = 0
KST3 191244Z 29006KT 16/14 A2993 RMK A01 T01640137  RH  084%=      5-min Rain = 0
KST3 191245Z 29006KT 17/14 A2993 RMK A01 T01650138  RH  084%=      5-min Rain = 0
KST3 191246Z 30005KT 17/14 A2993 RMK A01 T01650139  RH  085%=      5-min Rain = 0
KST3 191247Z 30005KT 17/14 A2993 RMK A01 T01650137  RH  083%=      5-min Rain = 0
KST3 191248Z 30006KT 17/14 A2993 RMK A01 T01660137  RH  083%=      5-min Rain = 0
KST3 191249Z 30005KT 17/14 A2993 RMK A01 T01670137  RH  082%=      5-min Rain = 0
KST3 191250Z 30007KT 17/14 A2993 RMK A01 T01680139  RH  083%=      5-min Rain = 0
KST3 191251Z 29007KT 17/14 A2993 RMK A01 T01680136  RH  081%=      5-min Rain = 0
KST3 191252Z 29006KT 17/14 A2993 RMK A01 T01680137  RH  082%=      5-min Rain = 0
KST3 191253Z 29006KT 17/14 A2993 RMK A01 T01690139  RH  083%=      5-min Rain = 0
KST3 191254Z 29006KT 17/14 A2993 RMK A01 T01690140  RH  083%=      5-min Rain = 0
KST3 191255Z 29005KT 17/14 A2993 RMK A01 T01690140  RH  083%=      5-min Rain = 0
KST3 191256Z 29006KT 17/14 A2993 RMK A01 T01700139  RH  082%=      5-min Rain = 0
KST3 191257Z 29006KT 17/14 A2993 RMK A01 T01700139  RH  082%=      5-min Rain = 0
KST3 191258Z 29005KT 17/14 A2993 RMK A01 T01710141  RH  082%=      5-min Rain = 0
KST3 191259Z 29004KT 17/14 A2993 RMK A01 T01710141  RH  083%=      5-min Rain = 0
KST3 191300Z 29004KT 17/14 A2993 RMK A01 T01710142  RH  083%=      5-min Rain = 0
KST3 191301Z 30005KT 17/14 A2993 RMK A01 T01710143  RH  083%=      5-min Rain = 0
KST3 191302Z 30005KT 17/14 A2993 RMK A01 T01720141  RH  082%=      5-min Rain = 0
KST3 191303Z 31005KT 17/14 A2993 RMK A01 T01730141  RH  082%=      5-min Rain = 0
KST3 191304Z 31006KT 17/14 A2993 RMK A01 T01730138  RH  080%=      5-min Rain = 0
KST3 191305Z 31006KT 17/14 A2993 RMK A01 T01730138  RH  080%=      5-min Rain = 0
KST3 191306Z 30005KT 17/14 A2993 RMK A01 T01740140  RH  080%=      5-min Rain = 0
KST3 191307Z 29004KT 18/14 A2993 RMK A01 T01750143  RH  082%=      5-min Rain = 0
KST3 191308Z 30005KT 18/15 A2993 RMK A01 T01750145  RH  082%=      5-min Rain = 0
KST3 191309Z 30005KT 18/14 A2993 RMK A01 T01760144  RH  082%=      5-min Rain = 0
KST3 191310Z 30005KT 18/14 A2993 RMK A01 T01760143  RH  081%=      5-min Rain = 0
KST3 191311Z 31005KT 18/14 A2993 RMK A01 T01770144  RH  081%=      5-min Rain = 0
KST3 191312Z 31006KT 18/15 A2993 RMK A01 T01780146  RH  082%=      5-min Rain = 0
KST3 191313Z 31007KT 18/14 A2993 RMK A01 T01780141  RH  079%=      5-min Rain = 0
KST3 191314Z 31005KT 18/14 A2993 RMK A01 T01790141  RH  078%=      5-min Rain = 0
KST3 191315Z 31005KT 18/15 A2993 RMK A01 T01800146  RH  081%=      5-min Rain = 0
KST3 191316Z 31007KT 18/15 A2993 RMK A01 T01800147  RH  081%=      5-min Rain = 0
KST3 191317Z 31007KT 18/14 A2993 RMK A01 T01810141  RH  077%=      5-min Rain = 0
KST3 191318Z 31007KT 18/14 A2993 RMK A01 T01820140  RH  077%=      5-min Rain = 0
KST3 191319Z 31006KT 18/14 A2993 RMK A01 T01820144  RH  078%=      5-min Rain = 0
KST3 191320Z 31007KT 18/15 A2993 RMK A01 T01830145  RH  078%=      5-min Rain = 0
KST3 191321Z 31006KT 18/15 A2993 RMK A01 T01840147  RH  079%=      5-min Rain = 0
KST3 191322Z 31007KT 19/15 A2993 RMK A01 T01850146  RH  078%=      5-min Rain = 0
KST3 191323Z 32008KT 19/15 A2993 RMK A01 T01870145  RH  077%=      5-min Rain = 0
KST3 191324Z 31007KT 19/14 A2993 RMK A01 T01880143  RH  075%=      5-min Rain = 0
KST3 191325Z 32008KT 19/14 A2993 RMK A01 T01880141  RH  074%=      5-min Rain = 0
KST3 191326Z 31006KT 19/15 A2993 RMK A01 T01880146  RH  076%=      5-min Rain = 0
KST3 191327Z 31009KT 19/14 A2993 RMK A01 T01890142  RH  074%=      5-min Rain = 0
KST3 191328Z 32007KT 19/14 A2993 RMK A01 T01890142  RH  074%=      5-min Rain = 0
KST3 191329Z 32008KT 19/14 A2993 RMK A01 T01900143  RH  074%=      5-min Rain = 0
KST3 191330Z 32007KT 19/14 A2993 RMK A01 T01900143  RH  074%=      5-min Rain = 0
KST3 191331Z 32008KT 19/15 A2993 RMK A01 T01910145  RH  075%=      5-min Rain = 0
KST3 191332Z 32007KT 19/15 A2993 RMK A01 T01920148  RH  076%=      5-min Rain = 0
KST3 191333Z 31007KT 19/15 A2993 RMK A01 T01930148  RH  075%=      5-min Rain = 0
KST3 191334Z 31010KT 19/14 A2993 RMK A01 T01930141  RH  072%=      5-min Rain = 0
KST3 191335Z 31009KT 19/14 A2993 RMK A01 T01930142  RH  072%=      5-min Rain = 0
KST3 191336Z 32010KT 19/14 A2993 RMK A01 T01920141  RH  072%=      5-min Rain = 0
KST3 191337Z 32008KT 19/14 A2993 RMK A01 T01920143  RH  073%=      5-min Rain = 0
KST3 191338Z 32009KT 19/14 A2993 RMK A01 T01930144  RH  073%=      5-min Rain = 0
KST3 191339Z 32009KT 19/15 A2993 RMK A01 T01930145  RH  074%=      5-min Rain = 0
KST3 191340Z 32009KT 19/15 A2993 RMK A01 T01940146  RH  074%=      5-min Rain = 0
KST3 191341Z 32011KT 19/15 A2993 RMK A01 T01940147  RH  074%=      5-min Rain = 0
KST3 191342Z 33012KT 19/14 A2993 RMK A01 T01940143  RH  072%=      5-min Rain = 0
KST3 191343Z 32012KT 20/14 A2994 RMK A01 T01950143  RH  072%=      5-min Rain = 0
KST3 191344Z 32010KT 19/15 A2994 RMK A01 T01940145  RH  073%=      5-min Rain = 0
KST3 191345Z 32014KT 20/14 A2994 RMK A01 T01950144  RH  072%=      5-min Rain = 0
KST3 191346Z 32013KT 20/14 A2994 RMK A01 T01950140  RH  071%=      5-min Rain = 0
KST3 191347Z 32010KT 20/15 A2994 RMK A01 T01950146  RH  074%=      5-min Rain = 0
KST3 191348Z 32010KT 20/15 A2994 RMK A01 T01950146  RH  073%=      5-min Rain = 0
KST3 191349Z 33012KT 20/15 A2994 RMK A01 T01950146  RH  073%=      5-min Rain = 0
KST3 191350Z 32013KT 20/15 A2994 RMK A01 T01950145  RH  072%=      5-min Rain = 0
KST3 191351Z 32010KT 20/15 A2994 RMK A01 T01950145  RH  073%=      5-min Rain = 0
KST3 191352Z 32011KT 20/15 A2994 RMK A01 T01950147  RH  074%=      5-min Rain = 0
KST3 191353Z 32011KT 20/15 A2994 RMK A01 T01950148  RH  074%=      5-min Rain = 0
KST3 191354Z 32011KT 20/15 A2994 RMK A01 T01960148  RH  074%=      5-min Rain = 0
KST3 191355Z 31011KT 20/15 A2994 RMK A01 T01960145  RH  073%=      5-min Rain = 0
KST3 191356Z 33012KT 20/15 A2994 RMK A01 T01960145  RH  072%=      5-min Rain = 0
KST3 191357Z 32014KT 20/14 A2994 RMK A01 T01960144  RH  072%=      5-min Rain = 0
KST3 191358Z 33013KT 20/14 A2994 RMK A01 T01960144  RH  072%=      5-min Rain = 0
KST3 191359Z 32011KT 20/14 A2994 RMK A01 T01960144  RH  072%=      5-min Rain = 0
KST3 191400Z 32014KT 20/14 A2994 RMK A01 T01960144  RH  072%=      5-min Rain = 0
KST3 191401Z 32012KT 20/14 A2994 RMK A01 T01960143  RH  071%=      5-min Rain = 0
KST3 191402Z 32012G17KT 20/15 A2994 RMK A01 T01960147  RH  073%=      5-min Rain = 0
KST3 191403Z 33014KT 20/14 A2994 RMK A01 T01970143  RH  071%=      5-min Rain = 0
KST3 191404Z 33014KT 20/14 A2994 RMK A01 T01970143  RH  071%=      5-min Rain = 0
KST3 191405Z 33011KT 20/14 A2994 RMK A01 T01960144  RH  072%=      5-min Rain = 0
KST3 191406Z 32013KT 20/15 A2994 RMK A01 T01960145  RH  072%=      5-min Rain = 0
KST3 191407Z 32012KT 20/15 A2994 RMK A01 T01960145  RH  072%=      5-min Rain = 0
KST3 191408Z 31012KT 20/15 A2994 RMK A01 T01970145  RH  072%=      5-min Rain = 0
KST3 191409Z 32011KT 20/15 A2994 RMK A01 T01970145  RH  072%=      5-min Rain = 0
KST3 191410Z 32012KT 20/15 A2994 RMK A01 T01970147  RH  073%=      5-min Rain = 0
KST3 191411Z 32012KT 20/14 A2994 RMK A01 T01980144  RH  071%=      5-min Rain = 0
KST3 191412Z 32012KT 20/15 A2994 RMK A01 T01980147  RH  072%=      5-min Rain = 0
KST3 191413Z 32012KT 20/15 A2994 RMK A01 T01990149  RH  073%=      5-min Rain = 0
KST3 191414Z 32012KT 20/15 A2994 RMK A01 T01990148  RH  072%=      5-min Rain = 0
KST3 191415Z 32012KT 20/15 A2994 RMK A01 T01990151  RH  074%=      5-min Rain = 0
KST3 191416Z 33011KT 20/15 A2994 RMK A01 T01990151  RH  073%=      5-min Rain = 0
KST3 191417Z 31012KT 20/15 A2994 RMK A01 T02000150  RH  073%=      5-min Rain = 0
KST3 191418Z 31013KT 20/15 A2994 RMK A01 T02000146  RH  071%=      5-min Rain = 0
KST3 191419Z 32011KT 20/15 A2994 RMK A01 T01980148  RH  073%=      5-min Rain = 0
KST3 191420Z 33014KT 20/15 A2994 RMK A01 T01990152  RH  074%=      5-min Rain = 0
KST3 191421Z 32013KT 20/15 A2994 RMK A01 T01990152  RH  074%=      5-min Rain = 0
KST3 191422Z 32014KT 20/15 A2994 RMK A01 T02000152  RH  074%=      5-min Rain = 0
KST3 191423Z 32012KT 20/15 A2994 RMK A01 T02000152  RH  074%=      5-min Rain = 0
KST3 191424Z 32014KT 20/15 A2994 RMK A01 T02000152  RH  074%=      5-min Rain = 0
KST3 191425Z 32012KT 20/15 A2994 RMK A01 T02000151  RH  074%=      5-min Rain = 0
KST3 191426Z 32013KT 20/15 A2994 RMK A01 T02000152  RH  074%=      5-min Rain = 0
KST3 191427Z 33014KT 20/15 A2994 RMK A01 T02000151  RH  073%=      5-min Rain = 0
KST3 191428Z 32012KT 20/15 A2994 RMK A01 T02000153  RH  074%=      5-min Rain = 0
KST3 191429Z 32010KT 20/16 A2994 RMK A01 T02000155  RH  075%=      5-min Rain = 0
KST3 191430Z 32010KT 20/16 A2994 RMK A01 T02020157  RH  075%=      5-min Rain = 0
KST3 191431Z 31010KT 20/16 A2994 RMK A01 T02030158  RH  075%=      5-min Rain = 0
KST3 191432Z 33010KT 20/16 A2994 RMK A01 T02040157  RH  075%=      5-min Rain = 0
KST3 191433Z 32011KT 21/16 A2994 RMK A01 T02050158  RH  074%=      5-min Rain = 0
KST3 191434Z 32012KT 21/16 A2994 RMK A01 T02050157  RH  074%=      5-min Rain = 0
KST3 191435Z 32011KT 21/16 A2994 RMK A01 T02050158  RH  074%=      5-min Rain = 0
KST3 191436Z 32012KT 21/16 A2994 RMK A01 T02050158  RH  075%=      5-min Rain = 0
KST3 191437Z 32010KT 20/16 A2994 RMK A01 T02040157  RH  074%=      5-min Rain = 0
KST3 191438Z 32011KT 20/16 A2994 RMK A01 T02040159  RH  075%=      5-min Rain = 0
KST3 191439Z 33011KT 21/16 A2994 RMK A01 T02050160  RH  075%=      5-min Rain = 0
KST3 191440Z 32012KT 21/16 A2994 RMK A01 T02060162  RH  076%=      5-min Rain = 0
KST3 191441Z 33011KT 21/16 A2994 RMK A01 T02070160  RH  074%=      5-min Rain = 0
KST3 191442Z 33011KT 21/16 A2994 RMK A01 T02080160  RH  074%=      5-min Rain = 0
KST3 191443Z 33012KT 21/16 A2994 RMK A01 T02080160  RH  074%=      5-min Rain = 0
KST3 191444Z 33011KT 21/16 A2994 RMK A01 T02080161  RH  074%=      5-min Rain = 0
KST3 191445Z 33009KT 21/16 A2994 RMK A01 T02090163  RH  075%=      5-min Rain = 0
KST3 191446Z 33008KT 21/17 A2994 RMK A01 T02100166  RH  076%=      5-min Rain = 0
KST3 191447Z 32010KT 21/17 A2994 RMK A01 T02120168  RH  076%=      5-min Rain = 0
KST3 191448Z 33010KT 21/17 A2994 RMK A01 T02130165  RH  074%=      5-min Rain = 0
KST3 191449Z 32011KT 21/16 A2994 RMK A01 T02140164  RH  073%=      5-min Rain = 0
KST3 191450Z 33010KT 21/17 A2994 RMK A01 T02140165  RH  073%=      5-min Rain = 0
KST3 191451Z 33011KT 21/16 A2994 RMK A01 T02130161  RH  072%=      5-min Rain = 0
KST3 191452Z 34010KT 21/16 A2994 RMK A01 T02120163  RH  073%=      5-min Rain = 0
KST3 191453Z 34009KT 21/16 A2994 RMK A01 T02120163  RH  074%=      5-min Rain = 0
KST3 191454Z 33010KT 21/16 A2994 RMK A01 T02130164  RH  074%=      5-min Rain = 0
KST3 191455Z 34009KT 21/16 A2994 RMK A01 T02130164  RH  073%=      5-min Rain = 0
KST3 191456Z 33011KT 21/16 A2994 RMK A01 T02130163  RH  073%=      5-min Rain = 0
KST3 191457Z 33010KT 21/16 A2994 RMK A01 T02130162  RH  073%=      5-min Rain = 0
KST3 191458Z 34010KT 21/16 A2994 RMK A01 T02130163  RH  073%=      5-min Rain = 0
KST3 191459Z 34009KT 21/16 A2994 RMK A01 T02130164  RH  074%=      5-min Rain = 0
KST3 191500Z 33010KT 21/16 A2994 RMK A01 T02130164  RH  073%=      5-min Rain = 0
KST3 191501Z 33011KT 21/16 A2994 RMK A01 T02130164  RH  074%=      5-min Rain = 0
KST3 191502Z 33011KT 21/17 A2994 RMK A01 T02140166  RH  074%=      5-min Rain = 0
KST3 191503Z 34011KT 21/16 A2994 RMK A01 T02130163  RH  073%=      5-min Rain = 0
KST3 191504Z 33011KT 21/16 A2994 RMK A01 T02140164  RH  073%=      5-min Rain = 0
KST3 191505Z 33012KT 21/16 A2994 RMK A01 T02140161  RH  072%=      5-min Rain = 0
KST3 191506Z 33010KT 21/16 A2994 RMK A01 T02120160  RH  072%=      5-min Rain = 0
KST3 191507Z 33010KT 21/16 A2994 RMK A01 T02110161  RH  073%=      5-min Rain = 0
KST3 191508Z 34009KT 21/16 A2994 RMK A01 T02110161  RH  073%=      5-min Rain = 0
KST3 191509Z 35008KT 21/16 A2994 RMK A01 T02120164  RH  074%=      5-min Rain = 0
KST3 191510Z 33007KT 21/17 A2994 RMK A01 T02140166  RH  074%=      5-min Rain = 0
KST3 191511Z 32009KT 22/17 A2994 RMK A01 T02150167  RH  074%=      5-min Rain = 0
KST3 191512Z 32010KT 22/16 A2994 RMK A01 T02160164  RH  073%=      5-min Rain = 0
KST3 191513Z 33008KT 22/16 A2994 RMK A01 T02150163  RH  072%=      5-min Rain = 0
KST3 191514Z 33006KT 21/17 A2994 RMK A01 T02140167  RH  075%=      5-min Rain = 0
KST3 191515Z 33008KT 22/17 A2994 RMK A01 T02150167  RH  074%=      5-min Rain = 0
KST3 191516Z 32006KT 22/17 A2994 RMK A01 T02170171  RH  075%=      5-min Rain = 0
KST3 191517Z 33008KT 22/17 A2994 RMK A01 T02190169  RH  073%=      5-min Rain = 0
KST3 191518Z 34008KT 22/17 A2994 RMK A01 T02190167  RH  072%=      5-min Rain = 0
KST3 191519Z 34009KT 22/17 A2994 RMK A01 T02190165  RH  071%=      5-min Rain = 0
KST3 191520Z 35008KT 22/16 A2994 RMK A01 T02190164  RH  071%=      5-min Rain = 0
KST3 191521Z 35007KT 22/16 A2994 RMK A01 T02180163  RH  071%=      5-min Rain = 0
KST3 191522Z 35007KT 22/17 A2994 RMK A01 T02180167  RH  073%=      5-min Rain = 0
KST3 191523Z 33007KT 22/17 A2994 RMK A01 T02180167  RH  073%=      5-min Rain = 0
KST3 191524Z 33006KT 22/17 A2993 RMK A01 T02190173  RH  075%=      5-min Rain = 0
KST3 191525Z 35009KT 22/17 A2993 RMK A01 T02210170  RH  073%=      5-min Rain = 0
KST3 191526Z 34009KT 22/17 A2993 RMK A01 T02230169  RH  071%=      5-min Rain = 0
KST3 191527Z 36007KT 22/17 A2993 RMK A01 T02220165  RH  070%=      5-min Rain = 0
KST3 191528Z 34005KT 22/17 A2993 RMK A01 T02210168  RH  072%=      5-min Rain = 0
KST3 191529Z 33007KT 22/17 A2993 RMK A01 T02210166  RH  071%=      5-min Rain = 0
KST3 191530Z 36006KT 22/17 A2993 RMK A01 T02200166  RH  072%=      5-min Rain = 0
KST3 191531Z 36007KT 22/17 A2993 RMK A01 T02200171  RH  074%=      5-min Rain = 0
KST3 191532Z 35007KT 22/16 A2993 RMK A01 T02220163  RH  069%=      5-min Rain = 0
KST3 191533Z 35006KT 22/17 A2993 RMK A01 T02220165  RH  070%=      5-min Rain = 0
KST3 191534Z 36008KT 22/17 A2993 RMK A01 T02210166  RH  071%=      5-min Rain = 0
KST3 191535Z 34007KT 22/17 A2993 RMK A01 T02220168  RH  072%=      5-min Rain = 0
KST3 191536Z 35007KT 22/17 A2993 RMK A01 T02220171  RH  073%=      5-min Rain = 0
KST3 191537Z 35008KT 22/17 A2993 RMK A01 T02240169  RH  071%=      5-min Rain = 0
KST3 191538Z 36009KT 23/16 A2993 RMK A01 T02250164  RH  069%=      5-min Rain = 0
KST3 191539Z 36007KT 22/16 A2993 RMK A01 T02240164  RH  069%=      5-min Rain = 0
KST3 191540Z 33007KT 22/17 A2993 RMK A01 T02230169  RH  071%=      5-min Rain = 0
KST3 191541Z 32007KT 22/17 A2993 RMK A01 T02230169  RH  071%=      5-min Rain = 0
KST3 191542Z 33006KT 22/17 A2993 RMK A01 T02240172  RH  073%=      5-min Rain = 0
KST3 191543Z 34007KT 22/17 A2993 RMK A01 T02240170  RH  071%=      5-min Rain = 0
KST3 191544Z 34009KT 23/17 A2993 RMK A01 T02250170  RH  071%=      5-min Rain = 0
KST3 191545Z 34008KT 23/17 A2993 RMK A01 T02250169  RH  071%=      5-min Rain = 0
KST3 191546Z 35007KT 22/17 A2993 RMK A01 T02240165  RH  070%=      5-min Rain = 0
KST3 191547Z 34006KT 22/17 A2993 RMK A01 T02230167  RH  071%=      5-min Rain = 0
KST3 191548Z 35004KT 22/16 A2993 RMK A01 T02220164  RH  069%=      5-min Rain = 0
KST3 191549Z 34005KT 22/17 A2993 RMK A01 T02210166  RH  071%=      5-min Rain = 0
KST3 191550Z 35004KT 22/17 A2993 RMK A01 T02210170  RH  073%=      5-min Rain = 0
KST3 191551Z 34007KT 22/17 A2993 RMK A01 T02220168  RH  072%=      5-min Rain = 0
KST3 191552Z 33007KT 22/17 A2992 RMK A01 T02220167  RH  071%=      5-min Rain = 0
KST3 191553Z 34005KT 22/17 A2992 RMK A01 T02220167  RH  071%=      5-min Rain = 0
KST3 191554Z 33004KT 22/17 A2992 RMK A01 T02220169  RH  072%=      5-min Rain = 0
KST3 191555Z 33004KT 22/17 A2992 RMK A01 T02240172  RH  072%=      5-min Rain = 0
KST3 191556Z 35007KT 23/17 A2992 RMK A01 T02260168  RH  070%=      5-min Rain = 0
KST3 191557Z 34007KT 23/17 A2992 RMK A01 T02270167  RH  069%=      5-min Rain = 0
KST3 191558Z 34007KT 23/17 A2992 RMK A01 T02270166  RH  068%=      5-min Rain = 0
KST3 191559Z 00006KT 23/17 A2992 RMK A01 T02270170  RH  070%=      5-min Rain = 0
KST3 191600Z 01005KT 23/16 A2992 RMK A01 T02270164  RH  068%=      5-min Rain = 0
KST3 191601Z 34005KT 23/17 A2992 RMK A01 T02270168  RH  070%=      5-min Rain = 0
KST3 191602Z 35004KT 23/17 A2992 RMK A01 T02270167  RH  068%=      5-min Rain = 0
KST3 191603Z 00006KT 23/17 A2993 RMK A01 T02280165  RH  067%=      5-min Rain = 0
KST3 191604Z 35005KT 23/17 A2993 RMK A01 T02270165  RH  068%=      5-min Rain = 0
KST3 191605Z 33005KT 23/17 A2993 RMK A01 T02270165  RH  068%=      5-min Rain = 0
KST3 191606Z 00006KT 23/17 A2993 RMK A01 T02260171  RH  071%=      5-min Rain = 0
KST3 191607Z 00006KT 23/17 A2993 RMK A01 T02270169  RH  070%=      5-min Rain = 0
KST3 191608Z 36005KT 23/17 A2993 RMK A01 T02270170  RH  070%=      5-min Rain = 0
KST3 191609Z 00003KT 23/17 A2993 RMK A01 T02280168  RH  069%=      5-min Rain = 0
KST3 191610Z 35003KT 23/17 A2992 RMK A01 T02280171  RH  070%=      5-min Rain = 0
KST3 191611Z 00006KT 23/17 A2993 RMK A01 T02290172  RH  070%=      5-min Rain = 0
KST3 191612Z 01005KT 23/16 A2993 RMK A01 T02300161  RH  065%=      5-min Rain = 0
KST3 191613Z 36005KT 23/17 A2992 RMK A01 T02300166  RH  067%=      5-min Rain = 0
KST3 191614Z 34006KT 23/17 A2992 RMK A01 T02310174  RH  071%=      5-min Rain = 0
KST3 191615Z 33007KT 23/17 A2992 RMK A01 T02320168  RH  067%=      5-min Rain = 0
KST3 191616Z 32005KT 23/17 A2992 RMK A01 T02310171  RH  069%=      5-min Rain = 0
KST3 191617Z 33004KT 23/17 A2992 RMK A01 T02300167  RH  067%=      5-min Rain = 0
KST3 191618Z 36007KT 23/17 A2992 RMK A01 T02300170  RH  069%=      5-min Rain = 0
KST3 191619Z 00006KT 23/16 A2992 RMK A01 T02320164  RH  066%=      5-min Rain = 0
KST3 191620Z 00005KT 23/17 A2992 RMK A01 T02330166  RH  066%=      5-min Rain = 0
KST3 191621Z 02003KT 23/16 A2992 RMK A01 T02320164  RH  065%=      5-min Rain = 0
KST3 191622Z 01006KT 23/17 A2992 RMK A01 T02310165  RH  066%=      5-min Rain = 0
KST3 191623Z 02007KT 23/17 A2992 RMK A01 T02310166  RH  067%=      5-min Rain = 0
KST3 191624Z 00007KT 23/17 A2992 RMK A01 T02330168  RH  067%=      5-min Rain = 0
KST3 191625Z 01007KT 23/17 A2992 RMK A01 T02340165  RH  065%=      5-min Rain = 0
KST3 191626Z 00005KT 23/16 A2992 RMK A01 T02330160  RH  064%=      5-min Rain = 0
KST3 191627Z 00002KT 23/16 A2992 RMK A01 T02310160  RH  064%=      5-min Rain = 0
KST3 191628Z 35003KT 23/16 A2992 RMK A01 T02300160  RH  065%=      5-min Rain = 0
KST3 191629Z 36007KT 23/17 A2992 RMK A01 T02310165  RH  067%=      5-min Rain = 0
KST3 191630Z 36006KT 23/16 A2992 RMK A01 T02330164  RH  065%=      5-min Rain = 0
KST3 191631Z 00005KT 23/16 A2992 RMK A01 T02340160  RH  063%=      5-min Rain = 0
KST3 191632Z 01004KT 23/16 A2992 RMK A01 T02330155  RH  062%=      5-min Rain = 0
KST3 191633Z 04004KT 23/16 A2992 RMK A01 T02300156  RH  063%=      5-min Rain = 0
KST3 191634Z 00006KT 23/16 A2992 RMK A01 T02290162  RH  066%=      5-min Rain = 0
KST3 191635Z 36006KT 23/16 A2992 RMK A01 T02310164  RH  066%=      5-min Rain = 0
KST3 191636Z 35006KT 23/16 A2992 RMK A01 T02340160  RH  063%=      5-min Rain = 0
KST3 191637Z 34005KT 24/16 A2992 RMK A01 T02350164  RH  064%=      5-min Rain = 0
KST3 191638Z 35003KT 24/17 A2993 RMK A01 T02350165  RH  065%=      5-min Rain = 0
KST3 191639Z 03006KT 24/17 A2993 RMK A01 T02360169  RH  066%=      5-min Rain = 0
KST3 191640Z 01007KT 24/17 A2993 RMK A01 T02370166  RH  064%=      5-min Rain = 0
KST3 191641Z 36008KT 24/17 A2993 RMK A01 T02380168  RH  065%=      5-min Rain = 0
KST3 191642Z 35008KT 24/16 A2993 RMK A01 T02390163  RH  063%=      5-min Rain = 0
KST3 191643Z 34006KT 24/17 A2992 RMK A01 T02380166  RH  064%=      5-min Rain = 0
KST3 191644Z 34005KT 24/17 A2992 RMK A01 T02370168  RH  065%=      5-min Rain = 0
KST3 191645Z 34005KT 24/17 A2992 RMK A01 T02370166  RH  064%=      5-min Rain = 0
KST3 191646Z 35004KT 24/16 A2992 RMK A01 T02370163  RH  063%=      5-min Rain = 0
KST3 191647Z 01003KT 23/16 A2992 RMK A01 T02340164  RH  065%=      5-min Rain = 0
KST3 191648Z 00006KT 24/17 A2992 RMK A01 T02350169  RH  067%=      5-min Rain = 0
KST3 191649Z 01004KT 24/16 A2992 RMK A01 T02370162  RH  063%=      5-min Rain = 0
KST3 191650Z 02004KT 24/16 A2992 RMK A01 T02360164  RH  064%=      5-min Rain = 0
KST3 191651Z 35004KT 24/16 A2992 RMK A01 T02360164  RH  064%=      5-min Rain = 0
KST3 191652Z 36004KT 24/17 A2992 RMK A01 T02380170  RH  066%=      5-min Rain = 0
KST3 191653Z 03007KT 24/17 A2992 RMK A01 T02400166  RH  063%=      5-min Rain = 0
KST3 191654Z 01005KT 24/16 A2992 RMK A01 T02390162  RH  062%=      5-min Rain = 0
KST3 191655Z 35006KT 24/16 A2992 RMK A01 T02370160  RH  062%=      5-min Rain = 0
KST3 191656Z 33006KT 24/17 A2992 RMK A01 T02380166  RH  064%=      5-min Rain = 0
KST3 191657Z 35005KT 24/16 A2993 RMK A01 T02390164  RH  063%=      5-min Rain = 0
KST3 191658Z 00006KT 24/17 A2993 RMK A01 T02400167  RH  064%=      5-min Rain = 0
KST3 191659Z 04005KT 24/16 A2993 RMK A01 T02400163  RH  062%=      5-min Rain = 0
KST3 191700Z 06003KT 24/17 A2993 RMK A01 T02370165  RH  064%=      5-min Rain = 0
KST3 191701Z 01004KT 24/17 A2993 RMK A01 T02370165  RH  064%=      5-min Rain = 0
KST3 191702Z 35006KT 24/17 A2993 RMK A01 T02380171  RH  066%=      5-min Rain = 0
KST3 191703Z 35008KT 24/16 A2993 RMK A01 T02420162  RH  061%=      5-min Rain = 0
KST3 191704Z 35007KT 24/17 A2993 RMK A01 T02430167  RH  062%=      5-min Rain = 0
KST3 191705Z 35006KT 24/17 A2993 RMK A01 T02440165  RH  061%=      5-min Rain = 0
KST3 191706Z 33006KT 25/17 A2993 RMK A01 T02450167  RH  062%=      5-min Rain = 0
KST3 191707Z 00004KT 24/17 A2993 RMK A01 T02430166  RH  062%=      5-min Rain = 0
KST3 191708Z 01003KT 24/17 A2993 RMK A01 T02420167  RH  063%=      5-min Rain = 0
KST3 191709Z 34006KT 24/17 A2993 RMK A01 T02440171  RH  064%=      5-min Rain = 0
KST3 191710Z 02007KT 25/17 A2993 RMK A01 T02460165  RH  061%=      5-min Rain = 0
KST3 191711Z 03005KT 24/16 A2993 RMK A01 T02440163  RH  061%=      5-min Rain = 0
KST3 191712Z 00005KT 24/17 A2993 RMK A01 T02430168  RH  063%=      5-min Rain = 0
KST3 191713Z 35006KT 24/17 A2993 RMK A01 T02430167  RH  062%=      5-min Rain = 0
KST3 191714Z 34005KT 24/16 A2993 RMK A01 T02440162  RH  060%=      5-min Rain = 0
KST3 191715Z 32004KT 25/17 A2993 RMK A01 T02450165  RH  061%=      5-min Rain = 0
KST3 191716Z 35007KT 25/17 A2993 RMK A01 T02450171  RH  063%=      5-min Rain = 0
KST3 191717Z 35007KT 25/17 A2993 RMK A01 T02460165  RH  061%=      5-min Rain = 0
KST3 191718Z 02006KT 25/16 A2993 RMK A01 T02460164  RH  060%=      5-min Rain = 0
KST3 191719Z 03004KT 25/16 A2993 RMK A01 T02470162  RH  059%=      5-min Rain = 0
KST3 191720Z 01005KT 25/16 A2993 RMK A01 T02480164  RH  060%=      5-min Rain = 0
KST3 191721Z 31003KT 25/17 A2993 RMK A01 T02490169  RH  061%=      5-min Rain = 0
KST3 191722Z 29003KT 25/16 A2993 RMK A01 T02490162  RH  058%=      5-min Rain = 0
KST3 191723Z 33005KT 25/17 A2993 RMK A01 T02470167  RH  061%=      5-min Rain = 0
KST3 191724Z 00008KT 25/17 A2993 RMK A01 T02480170  RH  062%=      5-min Rain = 0
KST3 191725Z 01006KT 25/16 A2993 RMK A01 T02500164  RH  059%=      5-min Rain = 0
KST3 191726Z 34009KT 25/17 A2993 RMK A01 T02510166  RH  059%=      5-min Rain = 0
KST3 191727Z 34006KT 25/16 A2993 RMK A01 T02500164  RH  059%=      5-min Rain = 0
KST3 191728Z 34004KT 25/16 A2993 RMK A01 T02480159  RH  058%=      5-min Rain = 0
KST3 191729Z 33004KT 25/16 A2993 RMK A01 T02470162  RH  059%=      5-min Rain = 0
KST3 191730Z 00007KT 25/16 A2993 RMK A01 T02460163  RH  060%=      5-min Rain = 0
KST3 191731Z 00007KT 25/16 A2993 RMK A01 T02480158  RH  057%=      5-min Rain = 0
KST3 191732Z 36007KT 25/16 A2993 RMK A01 T02490160  RH  058%=      5-min Rain = 0
KST3 191733Z 02005KT 25/16 A2993 RMK A01 T02490159  RH  057%=      5-min Rain = 0
KST3 191734Z 00006KT 25/16 A2993 RMK A01 T02480160  RH  058%=      5-min Rain = 0
KST3 191735Z 01005KT 25/17 A2993 RMK A01 T02480165  RH  060%=      5-min Rain = 0
KST3 191736Z 35007KT 25/16 A2993 RMK A01 T02500161  RH  058%=      5-min Rain = 0
KST3 191737Z 34006KT 25/16 A2993 RMK A01 T02500163  RH  058%=      5-min Rain = 0
KST3 191738Z 01006KT 25/16 A2993 RMK A01 T02500161  RH  058%=      5-min Rain = 0
KST3 191739Z 01007KT 25/16 A2993 RMK A01 T02500164  RH  059%=      5-min Rain = 0
KST3 191740Z 34008KT 25/16 A2993 RMK A01 T02510159  RH  057%=      5-min Rain = 0
KST3 191741Z 35005KT 25/16 A2993 RMK A01 T02510162  RH  058%=      5-min Rain = 0
KST3 191742Z 36005KT 25/17 A2993 RMK A01 T02500165  RH  059%=      5-min Rain = 0
KST3 191743Z 33006KT 25/17 A2993 RMK A01 T02520166  RH  059%=      5-min Rain = 0
KST3 191744Z 33004KT 25/16 A2993 RMK A01 T02530162  RH  057%=      5-min Rain = 0
KST3 191745Z 33004KT 25/17 A2993 RMK A01 T02520167  RH  059%=      5-min Rain = 0
KST3 191746Z 31006KT 25/17 A2992 RMK A01 T02520165  RH  058%=      5-min Rain = 0
KST3 191747Z 32003KT 25/17 A2992 RMK A01 T02520167  RH  059%=      5-min Rain = 0
KST3 191748Z 35002KT 25/17 A2992 RMK A01 T02520167  RH  059%=      5-min Rain = 0
KST3 191749Z 02005KT 25/16 A2992 RMK A01 T02520162  RH  057%=      5-min Rain = 0
KST3 191750Z 01007KT 25/17 A2992 RMK A01 T02520165  RH  059%=      5-min Rain = 0
KST3 191751Z 35006KT 25/16 A2992 RMK A01 T02530163  RH  057%=      5-min Rain = 0
KST3 191752Z 35006KT 25/17 A2992 RMK A01 T02530169  RH  060%=      5-min Rain = 0
KST3 191753Z 33007KT 26/17 A2992 RMK A01 T02560167  RH  058%=      5-min Rain = 0
KST3 191754Z 34004KT 26/16 A2992 RMK A01 T02560162  RH  056%=      5-min Rain = 0
KST3 191755Z 34001KT 26/16 A2992 RMK A01 T02550158  RH  055%=      5-min Rain = 0
KST3 191756Z 01001KT 26/15 A2992 RMK A01 T02550154  RH  054%=      5-min Rain = 0
KST3 191757Z 03003KT 26/17 A2992 RMK A01 T02550170  RH  059%=      5-min Rain = 0
KST3 191758Z 35006KT 26/16 A2992 RMK A01 T02570163  RH  056%=      5-min Rain = 0
KST3 191759Z 01003KT 26/16 A2992 RMK A01 T02560155  RH  054%=      5-min Rain = 0
KST3 191800Z 35005KT 25/16 A2992 RMK A01 T02540163  RH  057%=      5-min Rain = 0
KST3 191801Z 32004KT 25/16 A2992 RMK A01 T02540162  RH  056%=      5-min Rain = 0
KST3 191802Z 34003KT 25/16 A2992 RMK A01 T02540163  RH  057%=      5-min Rain = 0
KST3 191803Z 36005KT 25/16 A2992 RMK A01 T02540164  RH  057%=      5-min Rain = 0
KST3 191804Z 02006KT 26/17 A2992 RMK A01 T02560170  RH  059%=      5-min Rain = 0
KST3 191805Z 02006KT 26/16 A2992 RMK A01 T02580160  RH  055%=      5-min Rain = 0
KST3 191806Z 01007KT 26/16 A2992 RMK A01 T02580162  RH  056%=      5-min Rain = 0
KST3 191807Z 02007KT 26/17 A2992 RMK A01 T02570167  RH  057%=      5-min Rain = 0
KST3 191808Z 02007KT 26/16 A2992 RMK A01 T02570161  RH  055%=      5-min Rain = 0
KST3 191809Z 03004KT 26/16 A2992 RMK A01 T02550160  RH  056%=      5-min Rain = 0
KST3 191810Z 03002KT 25/16 A2992 RMK A01 T02540164  RH  057%=      5-min Rain = 0
KST3 191811Z 03001KT 26/16 A2992 RMK A01 T02550157  RH  055%=      5-min Rain = 0
KST3 191812Z 03001KT 26/16 A2992 RMK A01 T02550158  RH  055%=      5-min Rain = 0
KST3 191813Z 01003KT 26/17 A2992 RMK A01 T02550165  RH  057%=      5-min Rain = 0
KST3 191814Z 01003KT 26/17 A2992 RMK A01 T02570165  RH  057%=      5-min Rain = 0
KST3 191815Z 33006KT 26/17 A2992 RMK A01 T02590170  RH  058%=      5-min Rain = 0
KST3 191816Z 30007KT 26/16 A2992 RMK A01 T02610163  RH  055%=      5-min Rain = 0
KST3 191817Z 32006KT 26/17 A2992 RMK A01 T02610167  RH  056%=      5-min Rain = 0
KST3 191818Z 33006KT 26/17 A2992 RMK A01 T02600168  RH  057%=      5-min Rain = 0
KST3 191819Z 32006KT 26/17 A2992 RMK A01 T02610169  RH  057%=      5-min Rain = 0
KST3 191820Z 32004KT 26/16 A2992 RMK A01 T02610162  RH  054%=      5-min Rain = 0
KST3 191821Z 30002KT 26/15 A2992 RMK A01 T02600151  RH  051%=      5-min Rain = 0
KST3 191822Z 34001KT 26/16 A2992 RMK A01 T02590157  RH  054%=      5-min Rain = 0
KST3 191823Z 33004KT 26/16 A2992 RMK A01 T02590160  RH  055%=      5-min Rain = 0
KST3 191824Z 33003KT 26/16 A2992 RMK A01 T02590158  RH  054%=      5-min Rain = 0
KST3 191825Z 34002KT 26/16 A2992 RMK A01 T02590159  RH  054%=      5-min Rain = 0
KST3 191826Z 34000KT 26/16 A2992 RMK A01 T02590158  RH  054%=      5-min Rain = 0
KST3 191827Z 01002KT 26/16 A2992 RMK A01 T02600159  RH  054%=      5-min Rain = 0
KST3 191828Z 01002KT 26/16 A2992 RMK A01 T02610157  RH  053%=      5-min Rain = 0
KST3 191829Z 27004KT 26/16 A2992 RMK A01 T02610162  RH  055%=      5-min Rain = 0
KST3 191830Z 30004KT 26/16 A2992 RMK A01 T02620163  RH  054%=      5-min Rain = 0
KST3 191831Z 32007KT 26/17 A2992 RMK A01 T02630166  RH  055%=      5-min Rain = 0
KST3 191832Z 33006KT 26/17 A2992 RMK A01 T02640166  RH  055%=      5-min Rain = 0
KST3 191833Z 33005KT 26/16 A2992 RMK A01 T02640161  RH  053%=      5-min Rain = 0
KST3 191834Z 34004KT 26/16 A2991 RMK A01 T02640158  RH  052%=      5-min Rain = 0
KST3 191835Z 32004KT 26/16 A2991 RMK A01 T02630162  RH  054%=      5-min Rain = 0
KST3 191836Z 32001KT 27/15 A2991 RMK A01 T02650148  RH  049%=      5-min Rain = 0
KST3 191837Z 00000KT 26/15 A2991 RMK A01 T02640146  RH  048%=      5-min Rain = 0
KST3 191838Z 33000KT 26/15 A2991 RMK A01 T02640147  RH  049%=      5-min Rain = 0
KST3 191839Z 13003KT 26/15 A2991 RMK A01 T02640150  RH  049%=      5-min Rain = 0
KST3 191840Z 12003KT 26/15 A2991 RMK A01 T02640147  RH  049%=      5-min Rain = 0
KST3 191841Z 27001KT 26/15 A2991 RMK A01 T02640150  RH  049%=      5-min Rain = 0
KST3 191842Z 29005KT 26/15 A2991 RMK A01 T02640146  RH  048%=      5-min Rain = 0
KST3 191843Z 29006KT 27/16 A2991 RMK A01 T02650156  RH  051%=      5-min Rain = 0
KST3 191844Z 29005KT 27/15 A2991 RMK A01 T02670153  RH  050%=      5-min Rain = 0
KST3 191845Z 30005KT 27/15 A2991 RMK A01 T02670150  RH  049%=      5-min Rain = 0
KST3 191846Z 31006KT 27/16 A2991 RMK A01 T02670155  RH  050%=      5-min Rain = 0
KST3 191847Z 33005KT 27/15 A2991 RMK A01 T02670150  RH  049%=      5-min Rain = 0
KST3 191848Z 33004KT 27/15 A2991 RMK A01 T02650152  RH  050%=      5-min Rain = 0
KST3 191849Z 34007KT 27/15 A2991 RMK A01 T02650154  RH  050%=      5-min Rain = 0
KST3 191850Z 35008KT 27/16 A2991 RMK A01 T02660157  RH  051%=      5-min Rain = 0
KST3 191851Z 33009KT 27/15 A2991 RMK A01 T02690151  RH  049%=      5-min Rain = 0
KST3 191852Z 34008KT 27/16 A2991 RMK A01 T02680158  RH  051%=      5-min Rain = 0
KST3 191853Z 34008KT 27/16 A2991 RMK A01 T02690161  RH  051%=      5-min Rain = 0
KST3 191854Z 32007KT 27/15 A2991 RMK A01 T02700150  RH  048%=      5-min Rain = 0
KST3 191855Z 33006KT 27/15 A2991 RMK A01 T02690148  RH  047%=      5-min Rain = 0
KST3 191856Z 35001KT 27/15 A2991 RMK A01 T02680146  RH  047%=      5-min Rain = 0
KST3 191857Z 36001KT 27/14 A2991 RMK A01 T02670142  RH  046%=      5-min Rain = 0
KST3 191858Z 35005KT 27/15 A2991 RMK A01 T02670147  RH  048%=      5-min Rain = 0
KST3 191859Z 33005KT 27/15 A2991 RMK A01 T02680151  RH  049%=      5-min Rain = 0
KST3 191900Z 30008KT 27/15 A2991 RMK A01 T02680152  RH  049%=      5-min Rain = 0
KST3 191901Z 31007KT 27/14 A2991 RMK A01 T02680144  RH  046%=      5-min Rain = 0
KST3 191902Z 31004KT 27/14 A2991 RMK A01 T02670141  RH  046%=      5-min Rain = 0
KST3 191903Z 32004KT 27/14 A2991 RMK A01 T02650144  RH  047%=      5-min Rain = 0
KST3 191904Z 29007KT 27/16 A2991 RMK A01 T02650156  RH  051%=      5-min Rain = 0
KST3 191905Z 28008KT 27/15 A2991 RMK A01 T02670153  RH  050%=      5-min Rain = 0
KST3 191906Z 29008KT 27/15 A2991 RMK A01 T02680150  RH  048%=      5-min Rain = 0
KST3 191907Z 29009KT 27/15 A299 RMK A01 T02670153  RH  050%=      5-min Rain = 0
KST3 191908Z 30009KT 27/15 A2991 RMK A01 T02680147  RH  047%=      5-min Rain = 0
KST3 191909Z 30007KT 27/15 A299 RMK A01 T02670147  RH  047%=      5-min Rain = 0
KST3 191910Z 29007KT 27/15 A299 RMK A01 T02670147  RH  048%=      5-min Rain = 0
KST3 191911Z 30006KT 27/15 A299 RMK A01 T02660152  RH  050%=      5-min Rain = 0
KST3 191912Z 31005KT 27/15 A299 RMK A01 T02660152  RH  049%=      5-min Rain = 0
KST3 191913Z 31003KT 27/15 A299 RMK A01 T02680149  RH  048%=      5-min Rain = 0
KST3 191914Z 31001KT 27/14 A299 RMK A01 T02680142  RH  046%=      5-min Rain = 0
KST3 191915Z 33001KT 27/13 A299 RMK A01 T02680133  RH  043%=      5-min Rain = 0
KST3 191916Z 33001KT 27/14 A299 RMK A01 T02670141  RH  046%=      5-min Rain = 0
KST3 191917Z 29004G10KT 27/15 A299 RMK A01 T02680145  RH  047%=      5-min Rain = 0
KST3 191918Z 29008KT 27/14 A299 RMK A01 T02690144  RH  046%=      5-min Rain = 0
KST3 191919Z 29009KT 27/15 A299 RMK A01 T02700146  RH  047%=      5-min Rain = 0
KST3 191920Z 30007KT 27/15 A299 RMK A01 T02710150  RH  047%=      5-min Rain = 0
KST3 191921Z 29007KT 27/15 A299 RMK A01 T02720148  RH  047%=      5-min Rain = 0
KST3 191922Z 28006KT 27/15 A299 RMK A01 T02720145  RH  046%=      5-min Rain = 0
KST3 191923Z 29009KT 27/15 A299 RMK A01 T02710150  RH  047%=      5-min Rain = 0
KST3 191924Z 31008KT 27/15 A299 RMK A01 T02710147  RH  047%=      5-min Rain = 0
KST3 191925Z 31007KT 27/14 A299 RMK A01 T02700144  RH  046%=      5-min Rain = 0
KST3 191926Z 31006KT 27/15 A299 RMK A01 T02690145  RH  046%=      5-min Rain = 0
KST3 191927Z 30006KT 27/15 A299 RMK A01 T02680153  RH  049%=      5-min Rain = 0
KST3 191928Z 27004KT 27/15 A299 RMK A01 T02690146  RH  047%=      5-min Rain = 0
KST3 191929Z 25003KT 27/15 A299 RMK A01 T02690151  RH  048%=      5-min Rain = 0
KST3 191930Z 24005KT 27/15 A299 RMK A01 T02700152  RH  048%=      5-min Rain = 0
KST3 191931Z 25004KT 27/16 A299 RMK A01 T02720163  RH  051%=      5-min Rain = 0
KST3 191932Z 30004KT 28/15 A299 RMK A01 T02750150  RH  046%=      5-min Rain = 0
KST3 191933Z 29002KT 28/15 A2989 RMK A01 T02750148  RH  046%=      5-min Rain = 0
KST3 191934Z 28004KT 27/15 A2989 RMK A01 T02740150  RH  047%=      5-min Rain = 0
KST3 191935Z 27004KT 27/15 A2989 RMK A01 T02740150  RH  047%=      5-min Rain = 0
KST3 191936Z 27005KT 27/16 A2989 RMK A01 T02740157  RH  049%=      5-min Rain = 0
KST3 191937Z 26007KT 28/16 A2989 RMK A01 T02750159  RH  049%=      5-min Rain = 0
KST3 191938Z 29008KT 28/15 A2989 RMK A01 T02760145  RH  045%=      5-min Rain = 0
KST3 191939Z 28008KT 28/14 A2989 RMK A01 T02760141  RH  043%=      5-min Rain = 0
KST3 191940Z 28006KT 28/14 A2989 RMK A01 T02750139  RH  043%=      5-min Rain = 0
KST3 191941Z 30007KT 27/14 A2989 RMK A01 T02740136  RH  043%=      5-min Rain = 0
KST3 191942Z 31004KT 27/14 A2989 RMK A01 T02740138  RH  043%=      5-min Rain = 0
KST3 191943Z 30003KT 27/14 A2989 RMK A01 T02740144  RH  045%=      5-min Rain = 0
KST3 191944Z 31006KT 28/15 A2989 RMK A01 T02750145  RH  045%=      5-min Rain = 0
KST3 191945Z 32005KT 28/14 A2989 RMK A01 T02760136  RH  042%=      5-min Rain = 0
KST3 191946Z 30004KT 27/14 A2989 RMK A01 T02740135  RH  042%=      5-min Rain = 0
KST3 191947Z 31006KT 27/14 A2989 RMK A01 T02730139  RH  044%=      5-min Rain = 0
KST3 191948Z 29007KT 27/14 A2989 RMK A01 T02730138  RH  043%=      5-min Rain = 0
KST3 191949Z 28004KT 27/14 A2989 RMK A01 T02740135  RH  042%=      5-min Rain = 0
KST3 191950Z 30006KT 27/15 A2989 RMK A01 T02730146  RH  046%=      5-min Rain = 0
KST3 191951Z 29005KT 27/14 A2989 RMK A01 T02730136  RH  043%=      5-min Rain = 0
KST3 191952Z 31004KT 27/15 A2989 RMK A01 T02730145  RH  045%=      5-min Rain = 0
KST3 191953Z 29002G7KT 27/15 A2989 RMK A01 T02740153  RH  048%=      5-min Rain = 0
KST3 191954Z 30006KT 28/14 A2989 RMK A01 T02750143  RH  044%=      5-min Rain = 0
KST3 191955Z 31004KT 28/14 A2989 RMK A01 T02750136  RH  042%=      5-min Rain = 0
KST3 191956Z 30002KT 27/14 A2989 RMK A01 T02740139  RH  043%=      5-min Rain = 0
KST3 191957Z 32001KT 27/14 A2989 RMK A01 T02730139  RH  044%=      5-min Rain = 0
KST3 191958Z 34000KT 27/14 A2989 RMK A01 T02740138  RH  043%=      5-min Rain = 0
KST3 191959Z 00000KT 27/13 A2989 RMK A01 T02740129  RH  041%=      5-min Rain = 0
KST3 192000Z 31003KT 28/14 A2989 RMK A01 T02750135  RH  042%=      5-min Rain = 0
KST3 192001Z 29006KT 28/15 A2989 RMK A01 T02760148  RH  046%=      5-min Rain = 0
KST3 192002Z 29005KT 28/14 A2989 RMK A01 T02780138  RH  042%=      5-min Rain = 0
KST3 192003Z 30006KT 28/14 A2989 RMK A01 T02780143  RH  044%=      5-min Rain = 0
KST3 192004Z 33008KT 28/15 A2989 RMK A01 T02790154  RH  046%=      5-min Rain = 0
KST3 192005Z 34007KT 28/14 A2988 RMK A01 T02800143  RH  043%=      5-min Rain = 0
KST3 192006Z 28007KT 28/15 A2988 RMK A01 T02800145  RH  044%=      5-min Rain = 0
KST3 192007Z 28006KT 28/14 A2988 RMK A01 T02790140  RH  042%=      5-min Rain = 0
KST3 192008Z 29005KT 28/14 A2988 RMK A01 T02790139  RH  042%=      5-min Rain = 0
KST3 192009Z 28004KT 28/14 A2988 RMK A01 T02770139  RH  042%=      5-min Rain = 0
KST3 192010Z 27004KT 28/14 A2988 RMK A01 T02770141  RH  043%=      5-min Rain = 0
KST3 192011Z 27006KT 28/14 A2988 RMK A01 T02770139  RH  043%=      5-min Rain = 0
KST3 192012Z 28003G8KT 28/14 A2988 RMK A01 T02760136  RH  042%=      5-min Rain = 0
KST3 192013Z 31005KT 28/15 A2988 RMK A01 T02750145  RH  045%=      5-min Rain = 0
KST3 192014Z 33005KT 28/15 A2988 RMK A01 T02760154  RH  047%=      5-min Rain = 0
KST3 192015Z 31006KT 28/14 A2988 RMK A01 T02770143  RH  044%=      5-min Rain = 0
KST3 192016Z 31005KT 28/14 A2988 RMK A01 T02780137  RH  042%=      5-min Rain = 0
KST3 192017Z 29004KT 28/14 A2988 RMK A01 T02760139  RH  043%=      5-min Rain = 0
KST3 192018Z 28004KT 28/14 A2988 RMK A01 T02750139  RH  043%=      5-min Rain = 0
KST3 192019Z 28003KT 27/14 A2988 RMK A01 T02740143  RH  045%=      5-min Rain = 0
KST3 192020Z 27003KT 27/14 A2988 RMK A01 T02730137  RH  043%=      5-min Rain = 0
KST3 192021Z 30003KT 27/14 A2988 RMK A01 T02730138  RH  043%=      5-min Rain = 0
KST3 192022Z 33003KT 27/14 A2988 RMK A01 T02730144  RH  045%=      5-min Rain = 0
KST3 192023Z 16003KT 28/14 A2988 RMK A01 T02760142  RH  044%=      5-min Rain = 0
KST3 192024Z 27006KT 28/14 A2988 RMK A01 T02780144  RH  044%=      5-min Rain = 0
KST3 192025Z 26003KT 28/15 A2988 RMK A01 T02790152  RH  046%=      5-min Rain = 0
KST3 192026Z 31005KT 28/15 A2988 RMK A01 T02770146  RH  045%=      5-min Rain = 0
KST3 192027Z 33007KT 28/15 A2988 RMK A01 T02770149  RH  046%=      5-min Rain = 0
KST3 192028Z 32007KT 28/14 A2988 RMK A01 T02780143  RH  044%=      5-min Rain = 0
KST3 192029Z 33009KT 28/15 A2988 RMK A01 T02790149  RH  045%=      5-min Rain = 0
KST3 192030Z 34008KT 28/15 A2988 RMK A01 T02790148  RH  045%=      5-min Rain = 0
KST3 192031Z 32008KT 28/15 A2988 RMK A01 T02790152  RH  046%=      5-min Rain = 0
KST3 192032Z 32007KT 28/15 A2988 RMK A01 T02790146  RH  044%=      5-min Rain = 0
KST3 192033Z 31008KT 28/15 A2988 RMK A01 T02790151  RH  046%=      5-min Rain = 0
KST3 192034Z 31004KT 28/13 A2988 RMK A01 T02780133  RH  041%=      5-min Rain = 0
KST3 192035Z 32004KT 28/14 A2988 RMK A01 T02760136  RH  042%=      5-min Rain = 0
KST3 192036Z 31004KT 28/14 A2988 RMK A01 T02760143  RH  044%=      5-min Rain = 0
KST3 192037Z 29002KT 28/14 A2988 RMK A01 T02770143  RH  044%=      5-min Rain = 0
KST3 192038Z 27003KT 28/14 A2988 RMK A01 T02780139  RH  043%=      5-min Rain = 0
KST3 192039Z 28003KT 28/14 A2988 RMK A01 T02790136  RH  042%=      5-min Rain = 0
KST3 192040Z 31007KT 28/15 A2988 RMK A01 T02790147  RH  044%=      5-min Rain = 0
KST3 192041Z 28007KT 28/14 A2988 RMK A01 T02800144  RH  043%=      5-min Rain = 0
KST3 192042Z 32008KT 28/15 A2988 RMK A01 T02810148  RH  044%=      5-min Rain = 0
KST3 192043Z 32005KT 28/13 A2988 RMK A01 T02830132  RH  039%=      5-min Rain = 0
KST3 192044Z 31006KT 28/13 A2988 RMK A01 T02810130  RH  039%=      5-min Rain = 0
KST3 192045Z 31004KT 28/14 A2988 RMK A01 T02800143  RH  043%=      5-min Rain = 0
KST3 192046Z 29004KT 28/14 A2988 RMK A01 T02810138  RH  041%=      5-min Rain = 0
KST3 192047Z 26005KT 28/15 A2988 RMK A01 T02820146  RH  044%=      5-min Rain = 0
KST3 192048Z 32006KT 28/14 A2988 RMK A01 T02840144  RH  043%=      5-min Rain = 0
KST3 192049Z 27009KT 29/14 A2988 RMK A01 T02850143  RH  042%=      5-min Rain = 0
KST3 192050Z 27010G15KT 29/15 A2987 RMK A01 T02850145  RH  043%=      5-min Rain = 0
KST3 192051Z 00007G13KT 29/14 A2988 RMK A01 T02850142  RH  042%=      5-min Rain = 0
KST3 192052Z 32006KT 28/14 A2988 RMK A01 T02840142  RH  042%=      5-min Rain = 0
KST3 192053Z 31008KT 28/14 A2988 RMK A01 T02830144  RH  043%=      5-min Rain = 0
KST3 192054Z 31007KT 28/14 A2988 RMK A01 T02820139  RH  041%=      5-min Rain = 0
KST3 192055Z 32005KT 28/14 A2988 RMK A01 T02820137  RH  041%=      5-min Rain = 0
KST3 192056Z 32006KT 28/14 A2988 RMK A01 T02810143  RH  043%=      5-min Rain = 0
KST3 192057Z 30010KT 28/15 A2988 RMK A01 T02810145  RH  043%=      5-min Rain = 0
KST3 192058Z 30010KT 28/15 A2988 RMK A01 T02820146  RH  044%=      5-min Rain = 0
KST3 192059Z 30012KT 28/14 A2988 RMK A01 T02830143  RH  042%=      5-min Rain = 0
KST3 192100Z 29011KT 28/14 A2988 RMK A01 T02830141  RH  042%=      5-min Rain = 0
KST3 192101Z 28007KT 28/14 A2988 RMK A01 T02820139  RH  041%=      5-min Rain = 0
KST3 192102Z 28004KT 28/15 A2988 RMK A01 T02820148  RH  044%=      5-min Rain = 0
KST3 192103Z 31004KT 28/14 A2988 RMK A01 T02820135  RH  040%=      5-min Rain = 0
KST3 192104Z 30004KT 28/14 A2988 RMK A01 T02810140  RH  042%=      5-min Rain = 0
KST3 192105Z 31004KT 28/14 A2988 RMK A01 T02810141  RH  042%=      5-min Rain = 0
KST3 192106Z 35006KT 28/15 A2988 RMK A01 T02820147  RH  044%=      5-min Rain = 0
KST3 192107Z 35010KT 28/15 A2987 RMK A01 T02840146  RH  043%=      5-min Rain = 0
KST3 192108Z 35009KT 29/14 A2987 RMK A01 T02850142  RH  042%=      5-min Rain = 0
KST3 192109Z 32007KT 29/15 A2987 RMK A01 T02860148  RH  043%=      5-min Rain = 0
KST3 192110Z 29005KT 29/15 A2987 RMK A01 T02850147  RH  043%=      5-min Rain = 0
KST3 192111Z 26007KT 29/16 A2987 RMK A01 T02850155  RH  045%=      5-min Rain = 0
KST3 192112Z 26008KT 29/15 A2987 RMK A01 T02850149  RH  043%=      5-min Rain = 0
KST3 192113Z 26007KT 29/15 A2987 RMK A01 T02860150  RH  044%=      5-min Rain = 0
KST3 192114Z 25006KT 29/15 A2987 RMK A01 T02850146  RH  043%=      5-min Rain = 0
KST3 192115Z 23005KT 28/15 A2987 RMK A01 T02840147  RH  043%=      5-min Rain = 0
KST3 192116Z 25004KT 28/15 A2987 RMK A01 T02840148  RH  044%=      5-min Rain = 0
KST3 192117Z 28007KT 29/16 A2987 RMK A01 T02850156  RH  045%=      5-min Rain = 0
KST3 192118Z 30009KT 29/15 A2987 RMK A01 T02870151  RH  044%=      5-min Rain = 0
KST3 192119Z 27009KT 29/16 A2987 RMK A01 T02870155  RH  045%=      5-min Rain = 0
KST3 192120Z 29009KT 29/15 A2987 RMK A01 T02880152  RH  044%=      5-min Rain = 0
KST3 192121Z 30008KT 29/15 A2987 RMK A01 T02870145  RH  042%=      5-min Rain = 0
KST3 192122Z 32007KT 29/15 A2987 RMK A01 T02860147  RH  043%=      5-min Rain = 0
KST3 192123Z 31008KT 29/15 A2987 RMK A01 T02860146  RH  042%=      5-min Rain = 0
KST3 192124Z 29006KT 29/15 A2987 RMK A01 T02850145  RH  042%=      5-min Rain = 0
KST3 192125Z 30005KT 28/14 A2987 RMK A01 T02840139  RH  041%=      5-min Rain = 0
KST3 192126Z 32003KT 28/14 A2987 RMK A01 T02830136  RH  040%=      5-min Rain = 0
KST3 192127Z 23004KT 28/14 A2987 RMK A01 T02830144  RH  043%=      5-min Rain = 0
KST3 192128Z 25009KT 28/15 A2987 RMK A01 T02840149  RH  044%=      5-min Rain = 0
KST3 192129Z 24011KT 29/16 A2987 RMK A01 T02870155  RH  045%=      5-min Rain = 0
KST3 192130Z 24009KT 29/14 A2987 RMK A01 T02870142  RH  041%=      5-min Rain = 0
KST3 192131Z 25008KT 29/14 A2987 RMK A01 T02850144  RH  042%=      5-min Rain = 0
KST3 192132Z 26006KT 28/14 A2987 RMK A01 T02840137  RH  041%=      5-min Rain = 0
KST3 192133Z 21004KT 28/14 A2987 RMK A01 T02820139  RH  042%=      5-min Rain = 0
KST3 192134Z 20002KT 28/14 A2987 RMK A01 T02810138  RH  041%=      5-min Rain = 0
KST3 192135Z 27003KT 28/15 A2987 RMK A01 T02830146  RH  043%=      5-min Rain = 0
KST3 192136Z 23001KT 29/15 A2987 RMK A01 T02850147  RH  043%=      5-min Rain = 0
KST3 192137Z 24003KT 29/15 A2987 RMK A01 T02870145  RH  042%=      5-min Rain = 0
KST3 192138Z 30003KT 29/14 A2987 RMK A01 T02880141  RH  041%=      5-min Rain = 0
KST3 192139Z 31007KT 29/15 A2987 RMK A01 T02880145  RH  042%=      5-min Rain = 0
KST3 192140Z 30007KT 29/15 A2987 RMK A01 T02880152  RH  044%=      5-min Rain = 0
KST3 192141Z 30006KT 29/15 A2987 RMK A01 T02880154  RH  044%=      5-min Rain = 0
KST3 192142Z 29007KT 29/15 A2987 RMK A01 T02890150  RH  043%=      5-min Rain = 0
KST3 192143Z 29007KT 29/15 A2987 RMK A01 T02890145  RH  041%=      5-min Rain = 0
KST3 192144Z 29006KT 29/15 A2987 RMK A01 T02890147  RH  042%=      5-min Rain = 0
KST3 192145Z 30005KT 29/15 A2987 RMK A01 T02880147  RH  042%=      5-min Rain = 0
KST3 192146Z 31003KT 29/15 A2987 RMK A01 T02880152  RH  044%=      5-min Rain = 0
KST3 192147Z 30001KT 29/16 A2987 RMK A01 T02890156  RH  045%=      5-min Rain = 0
KST3 192148Z 29002KT 29/15 A2987 RMK A01 T02900148  RH  042%=      5-min Rain = 0
KST3 192149Z 29004KT 29/15 A2987 RMK A01 T02910146  RH  041%=      5-min Rain = 0
KST3 192150Z 29006KT 29/14 A2986 RMK A01 T02900142  RH  040%=      5-min Rain = 0
KST3 192151Z 26007KT 29/15 A2987 RMK A01 T02880152  RH  043%=      5-min Rain = 0
KST3 192152Z 23007KT 29/14 A2987 RMK A01 T02880143  RH  041%=      5-min Rain = 0
KST3 192153Z 24007KT 29/15 A2986 RMK A01 T02880148  RH  042%=      5-min Rain = 0
KST3 192154Z 24008KT 29/15 A2986 RMK A01 T02880149  RH  043%=      5-min Rain = 0
KST3 192155Z 25007KT 29/15 A2987 RMK A01 T02870148  RH  043%=      5-min Rain = 0
KST3 192156Z 25007KT 29/15 A2987 RMK A01 T02880154  RH  044%=      5-min Rain = 0
KST3 192157Z 26008KT 29/15 A2986 RMK A01 T02880154  RH  044%=      5-min Rain = 0
KST3 192158Z 27007KT 29/14 A2986 RMK A01 T02890143  RH  041%=      5-min Rain = 0
KST3 192159Z 25007KT 29/15 A2986 RMK A01 T02870147  RH  042%=      5-min Rain = 0
KST3 192200Z 25007KT 29/15 A2986 RMK A01 T02870150  RH  043%=      5-min Rain = 0
KST3 192201Z 25008KT 29/15 A2987 RMK A01 T02870150  RH  043%=      5-min Rain = 0
KST3 192202Z 26008KT 29/15 A2987 RMK A01 T02880151  RH  043%=      5-min Rain = 0
KST3 192203Z 25005KT 29/15 A2987 RMK A01 T02880149  RH  043%=      5-min Rain = 0
KST3 192204Z 29006KT 29/15 A2987 RMK A01 T02870148  RH  043%=      5-min Rain = 0
KST3 192205Z 29004KT 29/15 A2986 RMK A01 T02880149  RH  043%=      5-min Rain = 0
KST3 192206Z 27004KT 29/15 A2986 RMK A01 T02880146  RH  042%=      5-min Rain = 0
KST3 192207Z 28003KT 29/15 A2986 RMK A01 T02880149  RH  043%=      5-min Rain = 0
KST3 192208Z 29005KT 29/14 A2986 RMK A01 T02880141  RH  041%=      5-min Rain = 0
KST3 192209Z 30008KT 29/15 A2986 RMK A01 T02880145  RH  042%=      5-min Rain = 0
KST3 192210Z 29008KT 29/15 A2986 RMK A01 T02880147  RH  042%=      5-min Rain = 0
KST3 192211Z 28009KT 29/15 A2986 RMK A01 T02880148  RH  042%=      5-min Rain = 0
KST3 192212Z 28007KT 29/14 A2986 RMK A01 T02870141  RH  041%=      5-min Rain = 0
KST3 192213Z 27006KT 29/15 A2986 RMK A01 T02860145  RH  042%=      5-min Rain = 0
KST3 192214Z 28007KT 29/14 A2986 RMK A01 T02860140  RH  041%=      5-min Rain = 0
KST3 192215Z 26004KT 29/14 A2986 RMK A01 T02850143  RH  042%=      5-min Rain = 0
KST3 192216Z 25006KT 29/15 A2986 RMK A01 T02850149  RH  043%=      5-min Rain = 0
KST3 192217Z 24007KT 29/15 A2986 RMK A01 T02880152  RH  044%=      5-min Rain = 0
KST3 192218Z 25006KT 29/15 A2986 RMK A01 T02880147  RH  042%=      5-min Rain = 0
KST3 192219Z 26003KT 29/14 A2986 RMK A01 T02890140  RH  040%=      5-min Rain = 0
KST3 192220Z 24005KT 29/15 A2986 RMK A01 T02890148  RH  042%=      5-min Rain = 0
KST3 192221Z 23006KT 29/15 A2986 RMK A01 T02900151  RH  043%=      5-min Rain = 0
KST3 192222Z 23007KT 29/15 A2986 RMK A01 T02910149  RH  042%=      5-min Rain = 0
KST3 192223Z 23006KT 29/15 A2986 RMK A01 T02910146  RH  041%=      5-min Rain = 0
KST3 192224Z 21004KT 29/14 A2986 RMK A01 T02900143  RH  040%=      5-min Rain = 0
KST3 192225Z 21006KT 29/14 A2986 RMK A01 T02890142  RH  041%=      5-min Rain = 0
KST3 192226Z 22005KT 29/14 A2986 RMK A01 T02880139  RH  040%=      5-min Rain = 0
KST3 192227Z 22004KT 29/15 A2986 RMK A01 T02880148  RH  043%=      5-min Rain = 0
KST3 192228Z 22008KT 29/16 A2986 RMK A01 T02890155  RH  044%=      5-min Rain = 0
KST3 192229Z 21006KT 29/15 A2986 RMK A01 T02910148  RH  042%=      5-min Rain = 0
KST3 192230Z 21006KT 29/15 A2986 RMK A01 T02910148  RH  042%=      5-min Rain = 0
KST3 192231Z 22005KT 29/15 A2986 RMK A01 T02900145  RH  041%=      5-min Rain = 0
KST3 192232Z 22007KT 29/15 A2986 RMK A01 T02900149  RH  042%=      5-min Rain = 0
KST3 192233Z 22010KT 29/15 A2986 RMK A01 T02900148  RH  042%=      5-min Rain = 0
KST3 192234Z 21007KT 29/15 A2986 RMK A01 T02890145  RH  041%=      5-min Rain = 0
KST3 192235Z 21009KT 29/15 A2986 RMK A01 T02890151  RH  043%=      5-min Rain = 0
KST3 192236Z 20005KT 29/15 A2986 RMK A01 T02890147  RH  042%=      5-min Rain = 0
KST3 192237Z 20005KT 29/15 A2986 RMK A01 T02890151  RH  043%=      5-min Rain = 0
KST3 192238Z 21006KT 29/15 A2986 RMK A01 T02910152  RH  043%=      5-min Rain = 0
KST3 192239Z 21006KT 29/14 A2986 RMK A01 T02910144  RH  041%=      5-min Rain = 0
KST3 192240Z 21007KT 29/15 A2986 RMK A01 T02900145  RH  041%=      5-min Rain = 0
KST3 192241Z 20005G10KT 29/14 A2986 RMK A01 T02890142  RH  041%=      5-min Rain = 0
KST3 192242Z 21004KT 29/14 A2986 RMK A01 T02890144  RH  041%=      5-min Rain = 0
KST3 192243Z 23005KT 29/15 A2986 RMK A01 T02900153  RH  043%=      5-min Rain = 0
KST3 192244Z 25006KT 29/15 A2986 RMK A01 T02910145  RH  041%=      5-min Rain = 0
KST3 192245Z 26004KT 29/15 A2986 RMK A01 T02910148  RH  042%=      5-min Rain = 0
KST3 192246Z 21002KT 29/16 A2986 RMK A01 T02910155  RH  044%=      5-min Rain = 0
KST3 192247Z 24004KT 29/15 A2985 RMK A01 T02920150  RH  042%=      5-min Rain = 0
KST3 192248Z 22007KT 29/16 A2985 RMK A01 T02930158  RH  044%=      5-min Rain = 0
KST3 192249Z 22008KT 29/15 A2985 RMK A01 T02940146  RH  041%=      5-min Rain = 0
KST3 192250Z 24007KT 29/15 A2985 RMK A01 T02940146  RH  041%=      5-min Rain = 0
KST3 192251Z 24006KT 29/14 A2985 RMK A01 T02920139  RH  039%=      5-min Rain = 0
KST3 192252Z 25005KT 29/15 A2985 RMK A01 T02910146  RH  041%=      5-min Rain = 0
KST3 192253Z 24005KT 29/15 A2985 RMK A01 T02900150  RH  042%=      5-min Rain = 0
KST3 192254Z 26004KT 29/15 A2985 RMK A01 T02910145  RH  041%=      5-min Rain = 0
KST3 192255Z 24007KT 29/15 A2985 RMK A01 T02910146  RH  041%=      5-min Rain = 0
KST3 192256Z 24005KT 29/14 A2985 RMK A01 T02910144  RH  041%=      5-min Rain = 0
KST3 192257Z 25005KT 29/14 A2985 RMK A01 T02910142  RH  040%=      5-min Rain = 0
KST3 192258Z 25004KT 29/15 A2985 RMK A01 T02910147  RH  041%=      5-min Rain = 0
KST3 192259Z 27005KT 29/15 A2985 RMK A01 T02910147  RH  042%=      5-min Rain = 0
KST3 192300Z 27004KT 29/14 A2985 RMK A01 T02910141  RH  040%=      5-min Rain = 0
KST3 192306Z 21005KT 29/15 A2985 RMK A01 T02920153  RH  043%=      5-min Rain = 0
KST3 192307Z 20008KT 29/15 A2985 RMK A01 T02920152  RH  043%=      5-min Rain = 0
KST3 192308Z 18008KT 29/15 A2985 RMK A01 T02920146  RH  041%=      5-min Rain = 0
KST3 192309Z 19005KT 29/15 A2985 RMK A01 T02910146  RH  041%=      5-min Rain = 0
KST3 192310Z 22007KT 29/16 A2985 RMK A01 T02920155  RH  044%=      5-min Rain = 0
KST3 192311Z 21009KT 29/15 A2985 RMK A01 T02920152  RH  043%=      5-min Rain = 0
KST3 192312Z 20007KT 29/15 A2985 RMK A01 T02920148  RH  041%=      5-min Rain = 0
KST3 192313Z 20005KT 29/14 A2985 RMK A01 T02910142  RH  040%=      5-min Rain = 0
KST3 192314Z 20006KT 29/14 A2985 RMK A01 T02890143  RH  041%=      5-min Rain = 0
KST3 192315Z 20006KT 29/15 A2985 RMK A01 T02880150  RH  043%=      5-min Rain = 0
KST3 192316Z 21007KT 29/15 A2985 RMK A01 T02890148  RH  042%=      5-min Rain = 0
KST3 192317Z 22007KT 29/15 A2985 RMK A01 T02890145  RH  041%=      5-min Rain = 0
KST3 192318Z 23007KT 29/15 A2985 RMK A01 T02890145  RH  041%=      5-min Rain = 0
KST3 192319Z 23006KT 29/14 A2985 RMK A01 T02900142  RH  040%=      5-min Rain = 0
KST3 192320Z 22005KT 29/14 A2985 RMK A01 T02890144  RH  041%=      5-min Rain = 0
KST3 192321Z 22007KT 29/15 A2985 RMK A01 T02880147  RH  042%=      5-min Rain = 0
KST3 192322Z 22008KT 29/15 A2985 RMK A01 T02880147  RH  042%=      5-min Rain = 0
KST3 192323Z 22007KT 29/14 A2985 RMK A01 T02880143  RH  041%=      5-min Rain = 0
KST3 192324Z 23007KT 29/14 A2985 RMK A01 T02880143  RH  041%=      5-min Rain = 0
KST3 192325Z 22006KT 29/14 A2985 RMK A01 T02880141  RH  041%=      5-min Rain = 0
KST3 192326Z 22003KT 29/14 A2984 RMK A01 T02880140  RH  040%=      5-min Rain = 0
KST3 192327Z 20005KT 29/15 A2984 RMK A01 T02880151  RH  043%=      5-min Rain = 0
KST3 192328Z 19006KT 29/14 A2984 RMK A01 T02890143  RH  041%=      5-min Rain = 0
KST3 192329Z 20006KT 29/14 A2984 RMK A01 T02890143  RH  041%=      5-min Rain = 0
KST3 192330Z 20007KT 29/14 A2984 RMK A01 T02890144  RH  041%=      5-min Rain = 0
KST3 192331Z 21008KT 29/15 A2984 RMK A01 T02890148  RH  042%=      5-min Rain = 0
KST3 192332Z 21007KT 29/15 A2984 RMK A01 T02900145  RH  041%=      5-min Rain = 0
KST3 192333Z 20005KT 29/14 A2984 RMK A01 T02900144  RH  041%=      5-min Rain = 0
KST3 192334Z 20005KT 29/14 A2984 RMK A01 T02900144  RH  041%=      5-min Rain = 0
KST3 192335Z 20005KT 29/14 A2984 RMK A01 T02900139  RH  040%=      5-min Rain = 0
KST3 192336Z 20006KT 29/14 A2984 RMK A01 T02900141  RH  040%=      5-min Rain = 0
KST3 192337Z 20006KT 29/14 A2984 RMK A01 T02900141  RH  040%=      5-min Rain = 0
KST3 192338Z 22006KT 29/15 A2984 RMK A01 T02900145  RH  041%=      5-min Rain = 0
KST3 192339Z 22005KT 29/14 A2984 RMK A01 T02900143  RH  041%=      5-min Rain = 0
KST3 192340Z 22005KT 29/15 A2984 RMK A01 T02900145  RH  041%=      5-min Rain = 0
KST3 192341Z 21006KT 29/15 A2984 RMK A01 T02910151  RH  043%=      5-min Rain = 0
KST3 192342Z 20008KT 29/15 A2984 RMK A01 T02920147  RH  041%=      5-min Rain = 0
KST3 192343Z 19007KT 29/14 A2984 RMK A01 T02910140  RH  040%=      5-min Rain = 0
KST3 192344Z 19005KT 29/14 A2984 RMK A01 T02900142  RH  040%=      5-min Rain = 0
KST3 192345Z 19005KT 29/14 A2984 RMK A01 T02900136  RH  039%=      5-min Rain = 0
KST3 192346Z 21005KT 29/14 A2984 RMK A01 T02910143  RH  041%=      5-min Rain = 0
KST3 192347Z 21005KT 29/15 A2984 RMK A01 T02910154  RH  044%=      5-min Rain = 0
KST3 192348Z 20005KT 29/16 A2984 RMK A01 T02920160  RH  045%=      5-min Rain = 0
KST3 192349Z 20004KT 29/15 A2984 RMK A01 T02920150  RH  042%=      5-min Rain = 0
KST3 192350Z 22005KT 29/15 A2984 RMK A01 T02920152  RH  042%=      5-min Rain = 0
KST3 192351Z 22006KT 29/15 A2984 RMK A01 T02920145  RH  041%=      5-min Rain = 0
KST3 192352Z 22005KT 29/15 A2984 RMK A01 T02910147  RH  041%=      5-min Rain = 0
KST3 192353Z 20005KT 29/15 A2984 RMK A01 T02910149  RH  042%=      5-min Rain = 0
KST3 192354Z 21006KT 29/15 A2984 RMK A01 T02900147  RH  042%=      5-min Rain = 0
KST3 192355Z 21006KT 29/14 A2984 RMK A01 T02900140  RH  040%=      5-min Rain = 0
KST3 192356Z 20004KT 29/14 A2983 RMK A01 T02890141  RH  040%=      5-min Rain = 0
KST3 192357Z 20003KT 29/14 A2983 RMK A01 T02890144  RH  041%=      5-min Rain = 0
KST3 192358Z 19005KT 29/15 A2983 RMK A01 T02900146  RH  042%=      5-min Rain = 0
KST3 192359Z 18004KT 29/15 A2983 RMK A01 T02910146  RH  041%=      5-min Rain = 0
KST3 200000Z 19006KT 29/14 A2983 RMK A01 T02910138  RH  039%=      5-min Rain = 0
KST3 200001Z 20005KT 29/13 A2983 RMK A01 T02910133  RH  038%=      5-min Rain = 0
KST3 200002Z 19004KT 29/14 A2983 RMK A01 T02900137  RH  039%=      5-min Rain = 0
KST3 200003Z 19006KT 29/14 A2983 RMK A01 T02890141  RH  040%=      5-min Rain = 0
KST3 200004Z 20006KT 29/14 A2983 RMK A01 T02890141  RH  040%=      5-min Rain = 0
KST3 200005Z 19005KT 29/14 A2983 RMK A01 T02890138  RH  040%=      5-min Rain = 0
KST3 200006Z 20006KT 29/14 A2983 RMK A01 T02890139  RH  040%=      5-min Rain = 0
KST3 200007Z 21005KT 29/14 A2983 RMK A01 T02890144  RH  041%=      5-min Rain = 0
KST3 200008Z 21004KT 29/15 A2983 RMK A01 T02890152  RH  043%=      5-min Rain = 0
KST3 200009Z 22006KT 29/15 A2983 RMK A01 T02900145  RH  041%=      5-min Rain = 0
KST3 200010Z 22005KT 29/14 A2983 RMK A01 T02900138  RH  039%=      5-min Rain = 0
KST3 200011Z 21004KT 29/14 A2983 RMK A01 T02900142  RH  040%=      5-min Rain = 0
KST3 200012Z 22004KT 29/15 A2983 RMK A01 T02890147  RH  042%=      5-min Rain = 0
KST3 200013Z 21004KT 29/14 A2983 RMK A01 T02890142  RH  041%=      5-min Rain = 0
KST3 200014Z 19004KT 29/15 A2983 RMK A01 T02890146  RH  042%=      5-min Rain = 0
KST3 200015Z 18006KT 29/14 A2983 RMK A01 T02890138  RH  040%=      5-min Rain = 0
KST3 200016Z 19004KT 29/13 A2983 RMK A01 T02900133  RH  038%=      5-min Rain = 0
KST3 200017Z 21002KT 29/13 A2983 RMK A01 T02900131  RH  038%=      5-min Rain = 0
KST3 200018Z 20002KT 29/14 A2983 RMK A01 T02890135  RH  039%=      5-min Rain = 0
KST3 200019Z 20002KT 29/14 A2983 RMK A01 T02890141  RH  040%=      5-min Rain = 0
KST3 200020Z 19002KT 29/14 A2983 RMK A01 T02900136  RH  039%=      5-min Rain = 0
KST3 200021Z 18004KT 29/14 A2983 RMK A01 T02900138  RH  039%=      5-min Rain = 0
KST3 200022Z 18004KT 29/14 A2983 RMK A01 T02900138  RH  039%=      5-min Rain = 0
KST3 200023Z 18004KT 29/14 A2983 RMK A01 T02900138  RH  040%=      5-min Rain = 0
KST3 200024Z 21004KT 29/15 A2983 RMK A01 T02900146  RH  042%=      5-min Rain = 0
KST3 200025Z 21004KT 29/15 A2983 RMK A01 T02900145  RH  041%=      5-min Rain = 0
KST3 200026Z 21005KT 29/15 A2983 RMK A01 T02890148  RH  042%=      5-min Rain = 0
KST3 200027Z 20005KT 29/14 A2983 RMK A01 T02880144  RH  041%=      5-min Rain = 0
KST3 200028Z 20005KT 29/14 A2983 RMK A01 T02880142  RH  041%=      5-min Rain = 0
KST3 200029Z 21006KT 29/14 A2983 RMK A01 T02880142  RH  041%=      5-min Rain = 0
KST3 200030Z 21007KT 29/14 A2983 RMK A01 T02870144  RH  042%=      5-min Rain = 0
KST3 200031Z 21006KT 29/14 A2983 RMK A01 T02860142  RH  041%=      5-min Rain = 0
KST3 200032Z 21006KT 29/14 A2983 RMK A01 T02860140  RH  041%=      5-min Rain = 0
KST3 200033Z 21005KT 29/14 A2983 RMK A01 T02850144  RH  042%=      5-min Rain = 0
KST3 200034Z 21005KT 29/15 A2983 RMK A01 T02850146  RH  043%=      5-min Rain = 0
KST3 200035Z 21005KT 28/15 A2983 RMK A01 T02840146  RH  043%=      5-min Rain = 0
KST3 200036Z 21004KT 28/15 A2983 RMK A01 T02840150  RH  044%=      5-min Rain = 0
KST3 200037Z 21004KT 28/15 A2983 RMK A01 T02840148  RH  044%=      5-min Rain = 0
KST3 200038Z 20005KT 28/15 A2983 RMK A01 T02840151  RH  044%=      5-min Rain = 0
KST3 200039Z 20005KT 28/15 A2983 RMK A01 T02840153  RH  045%=      5-min Rain = 0
KST3 200040Z 20005KT 28/14 A2983 RMK A01 T02830142  RH  042%=      5-min Rain = 0
KST3 200041Z 20005KT 28/14 A2983 RMK A01 T02840142  RH  042%=      5-min Rain = 0
KST3 200042Z 20005KT 28/14 A2983 RMK A01 T02840143  RH  042%=      5-min Rain = 0
KST3 200043Z 20005KT 28/14 A2983 RMK A01 T02840144  RH  042%=      5-min Rain = 0
KST3 200044Z 20005KT 28/15 A2983 RMK A01 T02840145  RH  043%=      5-min Rain = 0
KST3 200045Z 21005KT 28/15 A2983 RMK A01 T02840148  RH  043%=      5-min Rain = 0
KST3 200046Z 21005KT 28/15 A2983 RMK A01 T02840147  RH  043%=      5-min Rain = 0
KST3 200047Z 21005KT 28/15 A2983 RMK A01 T02830149  RH  044%=      5-min Rain = 0
KST3 200048Z 20005KT 28/15 A2983 RMK A01 T02830152  RH  045%=      5-min Rain = 0
KST3 200049Z 20004KT 28/15 A2983 RMK A01 T02820150  RH  044%=      5-min Rain = 0
KST3 200050Z 19004KT 28/15 A2983 RMK A01 T02820150  RH  045%=      5-min Rain = 0
KST3 200051Z 19004KT 28/15 A2983 RMK A01 T02820148  RH  044%=      5-min Rain = 0
KST3 200052Z 19003KT 28/15 A2983 RMK A01 T02820149  RH  044%=      5-min Rain = 0
KST3 200053Z 19003KT 28/15 A2983 RMK A01 T02830145  RH  043%=      5-min Rain = 0
KST3 200054Z 20003KT 28/14 A2983 RMK A01 T02830144  RH  043%=      5-min Rain = 0
KST3 200055Z 19003KT 28/14 A2983 RMK A01 T02830137  RH  041%=      5-min Rain = 0
KST3 200056Z 19003KT 28/14 A2983 RMK A01 T02840138  RH  041%=      5-min Rain = 0
KST3 200057Z 19003KT 29/14 A2983 RMK A01 T02850144  RH  042%=      5-min Rain = 0
KST3 200058Z 19003KT 29/15 A2983 RMK A01 T02850145  RH  043%=      5-min Rain = 0
KST3 200059Z 19003KT 29/14 A2983 RMK A01 T02850139  RH  041%=      5-min Rain = 0
KST3 200100Z 20003KT 29/14 A2983 RMK A01 T02850142  RH  042%=      5-min Rain = 0
KST3 200101Z 20003KT 28/14 A2983 RMK A01 T02840139  RH  041%=      5-min Rain = 0
KST3 200102Z 20003KT 28/15 A2983 RMK A01 T02840148  RH  043%=      5-min Rain = 0
KST3 200103Z 20003KT 28/16 A2983 RMK A01 T02840155  RH  046%=      5-min Rain = 0
KST3 200104Z 20003KT 28/16 A2983 RMK A01 T02830156  RH  046%=      5-min Rain = 0
KST3 200105Z 19003KT 28/16 A2983 RMK A01 T02820158  RH  047%=      5-min Rain = 0
KST3 200106Z 20003KT 28/16 A2983 RMK A01 T02810157  RH  047%=      5-min Rain = 0
KST3 200107Z 19003KT 28/15 A2983 RMK A01 T02810151  RH  045%=      5-min Rain = 0
KST3 200108Z 19003KT 28/15 A2983 RMK A01 T02810146  RH  044%=      5-min Rain = 0
KST3 200109Z 19003KT 28/15 A2983 RMK A01 T02800151  RH  045%=      5-min Rain = 0
KST3 200110Z 19003KT 28/15 A2983 RMK A01 T02800153  RH  046%=      5-min Rain = 0
KST3 200111Z 19004KT 28/15 A2983 RMK A01 T02790151  RH  046%=      5-min Rain = 0
KST3 200112Z 19004KT 28/14 A2983 RMK A01 T02790141  RH  043%=      5-min Rain = 0
KST3 200113Z 19004KT 28/14 A2983 RMK A01 T02790142  RH  043%=      5-min Rain = 0
KST3 200114Z 19004KT 28/15 A2983 RMK A01 T02790146  RH  044%=      5-min Rain = 0
KST3 200115Z 18004KT 28/15 A2983 RMK A01 T02790148  RH  045%=      5-min Rain = 0
KST3 200116Z 18004KT 28/15 A2983 RMK A01 T02780147  RH  045%=      5-min Rain = 0
KST3 200117Z 18005KT 28/15 A2983 RMK A01 T02780149  RH  045%=      5-min Rain = 0
KST3 200118Z 18005KT 28/15 A2983 RMK A01 T02780148  RH  045%=      5-min Rain = 0
KST3 200119Z 19005KT 28/15 A2983 RMK A01 T02780147  RH  045%=      5-min Rain = 0
KST3 200120Z 19004KT 28/15 A2983 RMK A01 T02770149  RH  046%=      5-min Rain = 0
KST3 200121Z 19004KT 28/15 A2983 RMK A01 T02760150  RH  046%=      5-min Rain = 0
KST3 200122Z 18004KT 28/15 A2983 RMK A01 T02750149  RH  046%=      5-min Rain = 0
KST3 200123Z 18004KT 27/15 A2983 RMK A01 T02740148  RH  046%=      5-min Rain = 0
KST3 200124Z 18004KT 27/15 A2983 RMK A01 T02740148  RH  046%=      5-min Rain = 0
KST3 200125Z 18004KT 27/15 A2983 RMK A01 T02740146  RH  046%=      5-min Rain = 0
KST3 200126Z 18003KT 27/15 A2983 RMK A01 T02740148  RH  046%=      5-min Rain = 0
KST3 200127Z 18003KT 27/15 A2983 RMK A01 T02740149  RH  046%=      5-min Rain = 0
KST3 200128Z 18003KT 27/15 A2983 RMK A01 T02730149  RH  046%=      5-min Rain = 0
KST3 200129Z 18002KT 27/15 A2983 RMK A01 T02730148  RH  046%=      5-min Rain = 0
KST3 200130Z 18003KT 27/15 A2983 RMK A01 T02730147  RH  046%=      5-min Rain = 0
KST3 200131Z 18002KT 27/15 A2983 RMK A01 T02730148  RH  046%=      5-min Rain = 0
KST3 200132Z 17002KT 27/14 A2983 RMK A01 T02730144  RH  045%=      5-min Rain = 0
KST3 200133Z 17002KT 27/15 A2983 RMK A01 T02730148  RH  046%=      5-min Rain = 0
KST3 200134Z 17002KT 27/15 A2983 RMK A01 T02730145  RH  046%=      5-min Rain = 0
KST3 200135Z 17002KT 27/15 A2983 RMK A01 T02720145  RH  046%=      5-min Rain = 0
KST3 200136Z 17002KT 27/14 A2983 RMK A01 T02720143  RH  045%=      5-min Rain = 0
KST3 200137Z 17001KT 27/14 A2983 RMK A01 T02720141  RH  045%=      5-min Rain = 0
KST3 200138Z 17000KT 27/14 A2983 RMK A01 T02720141  RH  045%=      5-min Rain = 0
KST3 200139Z 17000KT 27/14 A2983 RMK A01 T02710140  RH  044%=      5-min Rain = 0
KST3 200140Z 00000KT 27/14 A2983 RMK A01 T02710140  RH  045%=      5-min Rain = 0
KST3 200141Z 15000KT 27/14 A2983 RMK A01 T02710143  RH  045%=      5-min Rain = 0
KST3 200142Z 14001KT 27/14 A2983 RMK A01 T02700142  RH  045%=      5-min Rain = 0
KST3 200143Z 13002KT 27/14 A2983 RMK A01 T02700140  RH  045%=      5-min Rain = 0
KST3 200144Z 13002KT 27/14 A2983 RMK A01 T02700141  RH  045%=      5-min Rain = 0
KST3 200145Z 13002KT 27/14 A2983 RMK A01 T02700142  RH  046%=      5-min Rain = 0
KST3 200146Z 12003KT 27/14 A2983 RMK A01 T02690143  RH  046%=      5-min Rain = 0
KST3 200147Z 12003KT 27/15 A2983 RMK A01 T02690145  RH  047%=      5-min Rain = 0
KST3 200148Z 12003KT 27/15 A2983 RMK A01 T02680146  RH  047%=      5-min Rain = 0
KST3 200149Z 12003KT 27/15 A2983 RMK A01 T02670145  RH  047%=      5-min Rain = 0
KST3 200150Z 12003KT 27/15 A2983 RMK A01 T02670145  RH  047%=      5-min Rain = 0
KST3 200151Z 12003KT 27/14 A2983 RMK A01 T02660144  RH  047%=      5-min Rain = 0
KST3 200152Z 12003KT 27/14 A2983 RMK A01 T02650141  RH  046%=      5-min Rain = 0
KST3 200153Z 13003KT 27/14 A2983 RMK A01 T02650136  RH  045%=      5-min Rain = 0
KST3 200154Z 13003KT 27/13 A2983 RMK A01 T02660133  RH  044%=      5-min Rain = 0
KST3 200155Z 13003KT 27/13 A2983 RMK A01 T02660134  RH  044%=      5-min Rain = 0
KST3 200156Z 13003KT 27/14 A2983 RMK A01 T02670136  RH  044%=      5-min Rain = 0
KST3 200157Z 13003KT 27/13 A2983 RMK A01 T02670134  RH  044%=      5-min Rain = 0
KST3 200158Z 13003KT 27/14 A2983 RMK A01 T02660135  RH  044%=      5-min Rain = 0
KST3 200159Z 13004KT 27/14 A2983 RMK A01 T02660135  RH  045%=      5-min Rain = 0
KST3 200200Z 13004KT 27/14 A2983 RMK A01 T02660136  RH  045%=      5-min Rain = 0
KST3 200201Z 13004KT 27/14 A2983 RMK A01 T02650137  RH  045%=      5-min Rain = 0
KST3 200202Z 13004KT 26/14 A2983 RMK A01 T02640136  RH  045%=      5-min Rain = 0
KST3 200203Z 14004KT 26/14 A2983 RMK A01 T02630136  RH  046%=      5-min Rain = 0
KST3 200204Z 14003KT 26/14 A2983 RMK A01 T02620137  RH  046%=      5-min Rain = 0
KST3 200205Z 14003KT 26/14 A2983 RMK A01 T02610137  RH  046%=      5-min Rain = 0
KST3 200206Z 14003KT 26/14 A2983 RMK A01 T02610137  RH  046%=      5-min Rain = 0
KST3 200207Z 13003KT 26/14 A2983 RMK A01 T02600136  RH  046%=      5-min Rain = 0
KST3 200208Z 13003KT 26/14 A2983 RMK A01 T02600136  RH  046%=      5-min Rain = 0
KST3 200209Z 13003KT 26/14 A2983 RMK A01 T02600136  RH  046%=      5-min Rain = 0
KST3 200210Z 13003KT 26/14 A2983 RMK A01 T02600136  RH  046%=      5-min Rain = 0
KST3 200211Z 12003KT 26/14 A2983 RMK A01 T02600135  RH  046%=      5-min Rain = 0
KST3 200212Z 12003KT 26/14 A2983 RMK A01 T02600135  RH  046%=      5-min Rain = 0
KST3 200213Z 11003KT 26/14 A2983 RMK A01 T02600136  RH  046%=      5-min Rain = 0
KST3 200214Z 11003KT 26/14 A2983 RMK A01 T02600136  RH  046%=      5-min Rain = 0
KST3 200215Z 11003KT 26/14 A2983 RMK A01 T02600136  RH  046%=      5-min Rain = 0
KST3 200216Z 10003KT 26/13 A2983 RMK A01 T02590134  RH  046%=      5-min Rain = 0
KST3 200217Z 09003KT 26/14 A2983 RMK A01 T02590135  RH  046%=      5-min Rain = 0
KST3 200218Z 09003KT 26/13 A2983 RMK A01 T02580134  RH  046%=      5-min Rain = 0
KST3 200219Z 09002KT 26/13 A2983 RMK A01 T02580132  RH  046%=      5-min Rain = 0
KST3 200220Z 09002KT 26/13 A2983 RMK A01 T02580131  RH  045%=      5-min Rain = 0
KST3 200221Z 09002KT 26/13 A2983 RMK A01 T02580131  RH  045%=      5-min Rain = 0
KST3 200222Z 09002KT 26/13 A2983 RMK A01 T02580132  RH  046%=      5-min Rain = 0
KST3 200223Z 09002KT 26/14 A2983 RMK A01 T02570135  RH  047%=      5-min Rain = 0
KST3 200224Z 09002KT 26/14 A2983 RMK A01 T02550137  RH  048%=      5-min Rain = 0
KST3 200225Z 09002KT 25/14 A2983 RMK A01 T02540138  RH  049%=      5-min Rain = 0
KST3 200226Z 09002KT 25/14 A2983 RMK A01 T02520135  RH  048%=      5-min Rain = 0
KST3 200227Z 10002KT 25/13 A2983 RMK A01 T02510132  RH  047%=      5-min Rain = 0
KST3 200228Z 10003KT 25/13 A2983 RMK A01 T02510131  RH  047%=      5-min Rain = 0
KST3 200229Z 11003KT 25/13 A2983 RMK A01 T02510130  RH  047%=      5-min Rain = 0
KST3 200230Z 11003KT 25/13 A2983 RMK A01 T02520129  RH  047%=      5-min Rain = 0
KST3 200231Z 12003KT 25/13 A2983 RMK A01 T02530128  RH  046%=      5-min Rain = 0
KST3 200232Z 12003KT 25/13 A2983 RMK A01 T02540128  RH  046%=      5-min Rain = 0
KST3 200233Z 13004KT 26/13 A2983 RMK A01 T02550127  RH  045%=      5-min Rain = 0
KST3 200234Z 13004KT 26/13 A2983 RMK A01 T02550128  RH  045%=      5-min Rain = 0
KST3 200235Z 13004KT 26/13 A2983 RMK A01 T02550129  RH  045%=      5-min Rain = 0
KST3 200236Z 13004KT 25/13 A2983 RMK A01 T02540129  RH  046%=      5-min Rain = 0
KST3 200237Z 13004KT 25/13 A2983 RMK A01 T02540131  RH  047%=      5-min Rain = 0
KST3 200238Z 14005KT 25/13 A2983 RMK A01 T02520132  RH  047%=      5-min Rain = 0
KST3 200239Z 14005KT 25/13 A2983 RMK A01 T02510132  RH  047%=      5-min Rain = 0
KST3 200240Z 14004KT 25/13 A2983 RMK A01 T02500133  RH  048%=      5-min Rain = 0
KST3 200241Z 14004KT 25/13 A2983 RMK A01 T02490134  RH  049%=      5-min Rain = 0
KST3 200242Z 13004KT 25/13 A2983 RMK A01 T02490134  RH  049%=      5-min Rain = 0
KST3 200243Z 13004KT 25/13 A2983 RMK A01 T02490134  RH  049%=      5-min Rain = 0
KST3 200244Z 13004KT 25/13 A2983 RMK A01 T02490134  RH  049%=      5-min Rain = 0
KST3 200245Z 12004KT 25/14 A2983 RMK A01 T02490136  RH  049%=      5-min Rain = 0
KST3 200246Z 12004KT 25/14 A2983 RMK A01 T02490135  RH  049%=      5-min Rain = 0
KST3 200247Z 12005KT 25/13 A2983 RMK A01 T02490134  RH  049%=      5-min Rain = 0
KST3 200248Z 12004KT 25/13 A2983 RMK A01 T02500134  RH  048%=      5-min Rain = 0
KST3 200249Z 11004KT 25/14 A2983 RMK A01 T02510135  RH  049%=      5-min Rain = 0
KST3 200250Z 11004KT 25/14 A2983 RMK A01 T02510136  RH  049%=      5-min Rain = 0
KST3 200251Z 10005KT 25/14 A2983 RMK A01 T02500135  RH  049%=      5-min Rain = 0
KST3 200252Z 10005KT 25/13 A2983 RMK A01 T02500133  RH  048%=      5-min Rain = 0
KST3 200253Z 09005KT 25/13 A2983 RMK A01 T02500131  RH  047%=      5-min Rain = 0
KST3 200254Z 09004KT 25/13 A2983 RMK A01 T02510131  RH  047%=      5-min Rain = 0
KST3 200255Z 09003KT 25/13 A2983 RMK A01 T02520129  RH  046%=      5-min Rain = 0
KST3 200256Z 09003KT 25/13 A2983 RMK A01 T02530129  RH  046%=      5-min Rain = 0
KST3 200257Z 09003KT 25/13 A2983 RMK A01 T02540130  RH  046%=      5-min Rain = 0
KST3 200258Z 09003KT 25/13 A2983 RMK A01 T02540131  RH  046%=      5-min Rain = 0
KST3 200259Z 10003KT 25/13 A2983 RMK A01 T02540133  RH  047%=      5-min Rain = 0
KST3 200300Z 11003KT 25/13 A2983 RMK A01 T02530133  RH  047%=      5-min Rain = 0
KST3 200301Z 12004KT 25/13 A2983 RMK A01 T02520132  RH  047%=      5-min Rain = 0
KST3 200302Z 12004KT 25/13 A2983 RMK A01 T02510129  RH  047%=      5-min Rain = 0
KST3 200303Z 13004KT 25/13 A2983 RMK A01 T02520127  RH  046%=      5-min Rain = 0
KST3 200304Z 13004KT 25/13 A2983 RMK A01 T02540128  RH  045%=      5-min Rain = 0
KST3 200305Z 13004KT 26/13 A2983 RMK A01 T02550128  RH  045%=      5-min Rain = 0
KST3 200306Z 13004KT 26/13 A2983 RMK A01 T02550128  RH  045%=      5-min Rain = 0
KST3 200307Z 13004KT 26/13 A2983 RMK A01 T02550128  RH  045%=      5-min Rain = 0
KST3 200308Z 13003KT 25/13 A2983 RMK A01 T02540129  RH  046%=      5-min Rain = 0
KST3 200309Z 13003KT 25/13 A2983 RMK A01 T02530129  RH  046%=      5-min Rain = 0
KST3 200310Z 13004KT 25/13 A2983 RMK A01 T02520128  RH  046%=      5-min Rain = 0
KST3 200311Z 13004KT 25/13 A2983 RMK A01 T02520128  RH  046%=      5-min Rain = 0
KST3 200312Z 13004KT 25/13 A2983 RMK A01 T02510128  RH  046%=      5-min Rain = 0
KST3 200313Z 13005KT 25/13 A2983 RMK A01 T02510127  RH  046%=      5-min Rain = 0
KST3 200314Z 13005KT 25/13 A2983 RMK A01 T02520128  RH  046%=      5-min Rain = 0
KST3 200315Z 14005KT 25/13 A2983 RMK A01 T02520130  RH  047%=      5-min Rain = 0
KST3 200316Z 15006KT 25/13 A2983 RMK A01 T02500129  RH  047%=      5-min Rain = 0
KST3 200317Z 15006KT 25/13 A2983 RMK A01 T02490130  RH  047%=      5-min Rain = 0
KST3 200318Z 15006KT 25/13 A2984 RMK A01 T02480131  RH  048%=      5-min Rain = 0
KST3 200319Z 16006KT 25/13 A2984 RMK A01 T02470133  RH  049%=      5-min Rain = 0
KST3 200320Z 16006KT 25/14 A2984 RMK A01 T02450135  RH  050%=      5-min Rain = 0
KST3 200321Z 16006KT 24/14 A2984 RMK A01 T02430136  RH  051%=      5-min Rain = 0
KST3 200322Z 16005KT 24/14 A2983 RMK A01 T02420137  RH  052%=      5-min Rain = 0
KST3 200323Z 16005KT 24/14 A2983 RMK A01 T02410138  RH  052%=      5-min Rain = 0
KST3 200324Z 16005KT 24/14 A2983 RMK A01 T02400138  RH  053%=      5-min Rain = 0
KST3 200325Z 16005KT 24/14 A2983 RMK A01 T02400138  RH  053%=      5-min Rain = 0
KST3 200326Z 16005KT 24/14 A2983 RMK A01 T02400138  RH  053%=      5-min Rain = 0
KST3 200327Z 16005KT 24/14 A2983 RMK A01 T02400138  RH  053%=      5-min Rain = 0
KST3 200328Z 17005KT 24/14 A2983 RMK A01 T02410138  RH  053%=      5-min Rain = 0
KST3 200329Z 17006KT 24/14 A2984 RMK A01 T02410140  RH  053%=      5-min Rain = 0
KST3 200330Z 17007KT 24/14 A2984 RMK A01 T02410141  RH  054%=      5-min Rain = 0
KST3 200331Z 18007KT 24/14 A2984 RMK A01 T02390143  RH  055%=      5-min Rain = 0
KST3 200332Z 18006KT 24/15 A2984 RMK A01 T02360146  RH  057%=      5-min Rain = 0
KST3 200333Z 18006KT 23/15 A2984 RMK A01 T02330145  RH  058%=      5-min Rain = 0
KST3 200334Z 18006KT 23/14 A2984 RMK A01 T02310144  RH  058%=      5-min Rain = 0
KST3 200335Z 18005KT 23/14 A2984 RMK A01 T02290143  RH  058%=      5-min Rain = 0
KST3 200336Z 18006KT 23/14 A2984 RMK A01 T02280143  RH  058%=      5-min Rain = 0
KST3 200337Z 17005KT 23/14 A2984 RMK A01 T02280143  RH  059%=      5-min Rain = 0
KST3 200338Z 17005KT 23/14 A2984 RMK A01 T02280143  RH  058%=      5-min Rain = 0
KST3 200339Z 18005KT 23/14 A2984 RMK A01 T02290143  RH  058%=      5-min Rain = 0
KST3 200340Z 18005KT 23/14 A2984 RMK A01 T02300143  RH  058%=      5-min Rain = 0
KST3 200341Z 18006KT 23/14 A2984 RMK A01 T02310144  RH  058%=      5-min Rain = 0
KST3 200342Z 18006KT 23/14 A2984 RMK A01 T02310144  RH  058%=      5-min Rain = 0
KST3 200343Z 18006KT 23/15 A2984 RMK A01 T02310145  RH  058%=      5-min Rain = 0
KST3 200344Z 18006KT 23/15 A2984 RMK A01 T02310146  RH  059%=      5-min Rain = 0
KST3 200345Z 18006KT 23/15 A2984 RMK A01 T02300145  RH  059%=      5-min Rain = 0
KST3 200346Z 18005KT 23/15 A2984 RMK A01 T02290145  RH  059%=      5-min Rain = 0
KST3 200347Z 17005KT 23/15 A2984 RMK A01 T02290145  RH  059%=      5-min Rain = 0
KST3 200348Z 17005KT 23/14 A2984 RMK A01 T02290144  RH  059%=      5-min Rain = 0
KST3 200349Z 16005KT 23/14 A2984 RMK A01 T02290143  RH  058%=      5-min Rain = 0
KST3 200350Z 16005KT 23/14 A2984 RMK A01 T02300143  RH  058%=      5-min Rain = 0
KST3 200351Z 16005KT 23/14 A2984 RMK A01 T02300142  RH  058%=      5-min Rain = 0
KST3 200352Z 17006KT 23/14 A2984 RMK A01 T02310142  RH  057%=      5-min Rain = 0
KST3 200353Z 17007KT 23/14 A2984 RMK A01 T02320142  RH  057%=      5-min Rain = 0
KST3 200354Z 17006KT 23/14 A2984 RMK A01 T02330143  RH  057%=      5-min Rain = 0
KST3 200355Z 17007KT 23/14 A2984 RMK A01 T02320143  RH  057%=      5-min Rain = 0
KST3 200356Z 17007KT 23/14 A2984 RMK A01 T02320143  RH  057%=      5-min Rain = 0
KST3 200357Z 17006KT 23/14 A2984 RMK A01 T02320143  RH  057%=      5-min Rain = 0
KST3 200358Z 17006KT 23/14 A2985 RMK A01 T02320143  RH  057%=      5-min Rain = 0
KST3 200359Z 17006KT 23/14 A2985 RMK A01 T02320142  RH  057%=      5-min Rain = 0
KST3 200400Z 17006KT 23/14 A2985 RMK A01 T02320141  RH  057%=      5-min Rain = 0
KST3 200401Z 17006KT 23/14 A2985 RMK A01 T02330142  RH  057%=      5-min Rain = 0
KST3 200402Z 17006KT 23/14 A2985 RMK A01 T02320142  RH  057%=      5-min Rain = 0
KST3 200403Z 17006KT 23/14 A2985 RMK A01 T02320141  RH  057%=      5-min Rain = 0
KST3 200404Z 17006KT 23/14 A2985 RMK A01 T02320142  RH  057%=      5-min Rain = 0
KST3 200405Z 18007KT 23/14 A2985 RMK A01 T02310143  RH  057%=      5-min Rain = 0
KST3 200406Z 17007KT 23/14 A2985 RMK A01 T02300143  RH  058%=      5-min Rain = 0
KST3 200407Z 17006KT 23/14 A2985 RMK A01 T02300143  RH  058%=      5-min Rain = 0
KST3 200408Z 17006KT 23/14 A2985 RMK A01 T02300144  RH  058%=      5-min Rain = 0
KST3 200409Z 17005KT 23/14 A2985 RMK A01 T02290144  RH  059%=      5-min Rain = 0
KST3 200410Z 17005KT 23/14 A2985 RMK A01 T02280143  RH  059%=      5-min Rain = 0
KST3 200411Z 17005KT 23/14 A2985 RMK A01 T02280143  RH  059%=      5-min Rain = 0
KST3 200412Z 17005KT 23/14 A2984 RMK A01 T02280142  RH  059%=      5-min Rain = 0
KST3 200413Z 17005KT 23/14 A2984 RMK A01 T02280141  RH  058%=      5-min Rain = 0
KST3 200414Z 16006KT 23/14 A2984 RMK A01 T02280141  RH  058%=      5-min Rain = 0
KST3 200415Z 17006KT 23/14 A2985 RMK A01 T02280140  RH  058%=      5-min Rain = 0
KST3 200416Z 17006KT 23/14 A2985 RMK A01 T02280140  RH  058%=      5-min Rain = 0
KST3 200417Z 17006KT 23/14 A2985 RMK A01 T02280140  RH  058%=      5-min Rain = 0
KST3 200418Z 17006KT 23/14 A2985 RMK A01 T02280141  RH  058%=      5-min Rain = 0
KST3 200419Z 17006KT 23/14 A2985 RMK A01 T02280143  RH  059%=      5-min Rain = 0
KST3 200420Z 17006KT 23/14 A2985 RMK A01 T02270143  RH  059%=      5-min Rain = 0
KST3 200421Z 18006KT 23/14 A2985 RMK A01 T02260144  RH  060%=      5-min Rain = 0
KST3 200422Z 18005KT 23/14 A2985 RMK A01 T02250143  RH  060%=      5-min Rain = 0
KST3 200423Z 18005KT 22/14 A2985 RMK A01 T02240144  RH  060%=      5-min Rain = 0
KST3 200424Z 18005KT 22/14 A2985 RMK A01 T02230143  RH  060%=      5-min Rain = 0
KST3 200425Z 17005KT 22/14 A2985 RMK A01 T02230142  RH  060%=      5-min Rain = 0
KST3 200426Z 17005KT 22/14 A2985 RMK A01 T02230142  RH  060%=      5-min Rain = 0
KST3 200427Z 17005KT 22/14 A2985 RMK A01 T02230142  RH  060%=      5-min Rain = 0
KST3 200428Z 17006KT 22/14 A2985 RMK A01 T02230142  RH  060%=      5-min Rain = 0
KST3 200429Z 17006KT 22/14 A2985 RMK A01 T02230142  RH  060%=      5-min Rain = 0
KST3 200430Z 17006KT 22/14 A2985 RMK A01 T02230141  RH  060%=      5-min Rain = 0
KST3 200431Z 17006KT 22/14 A2985 RMK A01 T02230141  RH  060%=      5-min Rain = 0
KST3 200432Z 17005KT 22/14 A2985 RMK A01 T02230141  RH  060%=      5-min Rain = 0
KST3 200433Z 16005KT 22/14 A2985 RMK A01 T02230141  RH  060%=      5-min Rain = 0
KST3 200434Z 16005KT 22/14 A2985 RMK A01 T02230141  RH  060%=      5-min Rain = 0
KST3 200435Z 16005KT 22/14 A2985 RMK A01 T02230142  RH  060%=      5-min Rain = 0
KST3 200436Z 17006KT 22/14 A2985 RMK A01 T02220141  RH  060%=      5-min Rain = 0
KST3 200437Z 17006KT 22/14 A2985 RMK A01 T02230142  RH  060%=      5-min Rain = 0
KST3 200438Z 17006KT 22/14 A2985 RMK A01 T02220142  RH  060%=      5-min Rain = 0
KST3 200439Z 18006KT 22/14 A2985 RMK A01 T02220143  RH  061%=      5-min Rain = 0
KST3 200440Z 17006KT 22/14 A2985 RMK A01 T02210143  RH  061%=      5-min Rain = 0
KST3 200441Z 17006KT 22/14 A2985 RMK A01 T02200142  RH  061%=      5-min Rain = 0
KST3 200442Z 17005KT 22/14 A2985 RMK A01 T02200142  RH  061%=      5-min Rain = 0
KST3 200443Z 17005KT 22/14 A2985 RMK A01 T02200142  RH  061%=      5-min Rain = 0
KST3 200444Z 17006KT 22/14 A2984 RMK A01 T02200141  RH  061%=      5-min Rain = 0
KST3 200445Z 17006KT 22/14 A2984 RMK A01 T02200141  RH  061%=      5-min Rain = 0
KST3 200446Z 17006KT 22/14 A2985 RMK A01 T02200141  RH  060%=      5-min Rain = 0
KST3 200447Z 17006KT 22/14 A2985 RMK A01 T02210141  RH  060%=      5-min Rain = 0
KST3 200448Z 17006KT 22/14 A2985 RMK A01 T02210141  RH  060%=      5-min Rain = 0
KST3 200449Z 17006KT 22/14 A2985 RMK A01 T02210140  RH  060%=      5-min Rain = 0
KST3 200450Z 17006KT 22/14 A2985 RMK A01 T02210141  RH  060%=      5-min Rain = 0
KST3 200451Z 17006KT 22/14 A2985 RMK A01 T02210141  RH  061%=      5-min Rain = 0
KST3 200452Z 18006KT 22/14 A2985 RMK A01 T02200142  RH  061%=      5-min Rain = 0
KST3 200453Z 18006KT 22/14 A2985 RMK A01 T02190141  RH  061%=      5-min Rain = 0
KST3 200454Z 18006KT 22/14 A2985 RMK A01 T02180143  RH  062%=      5-min Rain = 0
KST3 200455Z 18006KT 22/14 A2984 RMK A01 T02170143  RH  063%=      5-min Rain = 0
KST3 200456Z 18006KT 22/14 A2984 RMK A01 T02160142  RH  063%=      5-min Rain = 0
KST3 200457Z 17005KT 22/14 A2984 RMK A01 T02150142  RH  063%=      5-min Rain = 0
KST3 200458Z 17005KT 22/14 A2984 RMK A01 T02150141  RH  063%=      5-min Rain = 0
KST3 200459Z 17005KT 22/14 A2984 RMK A01 T02160141  RH  062%=      5-min Rain = 0

Page generated in 0.1308 seconds.